<?xml version="1.0" encoding="UTF-8" standalone="no" ?>
<gpx xmlns="http://www.topografix.com/GPX/1/1" xmlns:xsi="http://www.w3.org/2001/XMLSchema-instance" xsi:schemaLocation="http://www.topografix.com/GPX/1/1 http://www.topografix.com/GPX/1/1/gpx.xsd" version="1.1" creator="VisuGPX - https://www.visugpx.com">
  <metadata>
    <name>PARCOURS UTV 2014 ETAPE 2</name>
    <desc><![CDATA[Ultra Trail du Vercors 2014 etape 2 ]]></desc>
  </metadata>
  <trk>
    <name><![CDATA[section2-ok on GPSies.com]]></name>
    <trkseg>
      <trkpt lat="45.03142" lon="5.52718">
        <ele>1105</ele>
        <time>2010-01-01T00:00:00Z</time>
      </trkpt>
      <trkpt lat="45.0292" lon="5.52768">
        <ele>1110</ele>
        <time>2010-01-01T00:01:30Z</time>
      </trkpt>
      <trkpt lat="45.02821" lon="5.52674">
        <ele>1122</ele>
        <time>2010-01-01T00:02:17Z</time>
      </trkpt>
      <trkpt lat="45.02792" lon="5.52515">
        <ele>1120</ele>
        <time>2010-01-01T00:03:04Z</time>
      </trkpt>
      <trkpt lat="45.02682" lon="5.52475">
        <ele>1127</ele>
        <time>2010-01-01T00:03:49Z</time>
      </trkpt>
      <trkpt lat="45.02602" lon="5.52048">
        <ele>1125</ele>
        <time>2010-01-01T00:05:54Z</time>
      </trkpt>
      <trkpt lat="45.02305" lon="5.51752">
        <ele>1158</ele>
        <time>2010-01-01T00:08:19Z</time>
      </trkpt>
      <trkpt lat="45.02297" lon="5.51749">
        <ele>1158</ele>
        <time>2010-01-01T00:08:23Z</time>
      </trkpt>
      <trkpt lat="45.02295" lon="5.51749">
        <ele>1158</ele>
        <time>2010-01-01T00:08:24Z</time>
      </trkpt>
      <trkpt lat="45.02281" lon="5.51743">
        <ele>1158</ele>
        <time>2010-01-01T00:08:29Z</time>
      </trkpt>
      <trkpt lat="45.02273" lon="5.5174">
        <ele>1158</ele>
        <time>2010-01-01T00:08:33Z</time>
      </trkpt>
      <trkpt lat="45.02266" lon="5.51736">
        <ele>1158</ele>
        <time>2010-01-01T00:08:36Z</time>
      </trkpt>
      <trkpt lat="45.02258" lon="5.51733">
        <ele>1158</ele>
        <time>2010-01-01T00:08:39Z</time>
      </trkpt>
      <trkpt lat="45.0225" lon="5.51731">
        <ele>1158</ele>
        <time>2010-01-01T00:08:42Z</time>
      </trkpt>
      <trkpt lat="45.02242" lon="5.51728">
        <ele>1160</ele>
        <time>2010-01-01T00:08:46Z</time>
      </trkpt>
      <trkpt lat="45.02234" lon="5.51726">
        <ele>1160</ele>
        <time>2010-01-01T00:08:49Z</time>
      </trkpt>
      <trkpt lat="45.02225" lon="5.51724">
        <ele>1160</ele>
        <time>2010-01-01T00:08:52Z</time>
      </trkpt>
      <trkpt lat="45.02219" lon="5.51721">
        <ele>1161</ele>
        <time>2010-01-01T00:08:55Z</time>
      </trkpt>
      <trkpt lat="45.0221" lon="5.51717">
        <ele>1161</ele>
        <time>2010-01-01T00:08:59Z</time>
      </trkpt>
      <trkpt lat="45.02204" lon="5.51713">
        <ele>1161</ele>
        <time>2010-01-01T00:09:01Z</time>
      </trkpt>
      <trkpt lat="45.02198" lon="5.51708">
        <ele>1161</ele>
        <time>2010-01-01T00:09:04Z</time>
      </trkpt>
      <trkpt lat="45.02191" lon="5.51703">
        <ele>1161</ele>
        <time>2010-01-01T00:09:07Z</time>
      </trkpt>
      <trkpt lat="45.02185" lon="5.517">
        <ele>1161</ele>
        <time>2010-01-01T00:09:10Z</time>
      </trkpt>
      <trkpt lat="45.02178" lon="5.51696">
        <ele>1161</ele>
        <time>2010-01-01T00:09:13Z</time>
      </trkpt>
      <trkpt lat="45.02171" lon="5.51693">
        <ele>1161</ele>
        <time>2010-01-01T00:09:16Z</time>
      </trkpt>
      <trkpt lat="45.02169" lon="5.51692">
        <ele>1160</ele>
        <time>2010-01-01T00:09:17Z</time>
      </trkpt>
      <trkpt lat="45.02157" lon="5.51686">
        <ele>1162</ele>
        <time>2010-01-01T00:09:22Z</time>
      </trkpt>
      <trkpt lat="45.02149" lon="5.51683">
        <ele>1162</ele>
        <time>2010-01-01T00:09:25Z</time>
      </trkpt>
      <trkpt lat="45.02142" lon="5.5168">
        <ele>1163</ele>
        <time>2010-01-01T00:09:28Z</time>
      </trkpt>
      <trkpt lat="45.02135" lon="5.51678">
        <ele>1163</ele>
        <time>2010-01-01T00:09:31Z</time>
      </trkpt>
      <trkpt lat="45.02128" lon="5.51675">
        <ele>1163</ele>
        <time>2010-01-01T00:09:34Z</time>
      </trkpt>
      <trkpt lat="45.02122" lon="5.51672">
        <ele>1164</ele>
        <time>2010-01-01T00:09:37Z</time>
      </trkpt>
      <trkpt lat="45.02115" lon="5.51669">
        <ele>1164</ele>
        <time>2010-01-01T00:09:40Z</time>
      </trkpt>
      <trkpt lat="45.02108" lon="5.51665">
        <ele>1162</ele>
        <time>2010-01-01T00:09:42Z</time>
      </trkpt>
      <trkpt lat="45.021" lon="5.5166">
        <ele>1163</ele>
        <time>2010-01-01T00:09:46Z</time>
      </trkpt>
      <trkpt lat="45.02093" lon="5.51655">
        <ele>1163</ele>
        <time>2010-01-01T00:09:49Z</time>
      </trkpt>
      <trkpt lat="45.02086" lon="5.51648">
        <ele>1163</ele>
        <time>2010-01-01T00:09:53Z</time>
      </trkpt>
      <trkpt lat="45.02079" lon="5.51643">
        <ele>1166</ele>
        <time>2010-01-01T00:09:56Z</time>
      </trkpt>
      <trkpt lat="45.02071" lon="5.51639">
        <ele>1167</ele>
        <time>2010-01-01T00:09:59Z</time>
      </trkpt>
      <trkpt lat="45.02064" lon="5.51636">
        <ele>1168</ele>
        <time>2010-01-01T00:10:02Z</time>
      </trkpt>
      <trkpt lat="45.02057" lon="5.51634">
        <ele>1168</ele>
        <time>2010-01-01T00:10:05Z</time>
      </trkpt>
      <trkpt lat="45.02049" lon="5.51633">
        <ele>1169</ele>
        <time>2010-01-01T00:10:08Z</time>
      </trkpt>
      <trkpt lat="45.02047" lon="5.51633">
        <ele>1169</ele>
        <time>2010-01-01T00:10:09Z</time>
      </trkpt>
      <trkpt lat="45.02032" lon="5.5163">
        <ele>1170</ele>
        <time>2010-01-01T00:10:15Z</time>
      </trkpt>
      <trkpt lat="45.02025" lon="5.51631">
        <ele>1170</ele>
        <time>2010-01-01T00:10:18Z</time>
      </trkpt>
      <trkpt lat="45.02017" lon="5.51634">
        <ele>1171</ele>
        <time>2010-01-01T00:10:21Z</time>
      </trkpt>
      <trkpt lat="45.02009" lon="5.51633">
        <ele>1171</ele>
        <time>2010-01-01T00:10:24Z</time>
      </trkpt>
      <trkpt lat="45.02001" lon="5.51631">
        <ele>1171</ele>
        <time>2010-01-01T00:10:28Z</time>
      </trkpt>
      <trkpt lat="45.01993" lon="5.51626">
        <ele>1176</ele>
        <time>2010-01-01T00:10:31Z</time>
      </trkpt>
      <trkpt lat="45.01986" lon="5.51619">
        <ele>1176</ele>
        <time>2010-01-01T00:10:34Z</time>
      </trkpt>
      <trkpt lat="45.01978" lon="5.51615">
        <ele>1176</ele>
        <time>2010-01-01T00:10:38Z</time>
      </trkpt>
      <trkpt lat="45.0197" lon="5.51608">
        <ele>1177</ele>
        <time>2010-01-01T00:10:41Z</time>
      </trkpt>
      <trkpt lat="45.01963" lon="5.51607">
        <ele>1177</ele>
        <time>2010-01-01T00:10:44Z</time>
      </trkpt>
      <trkpt lat="45.01954" lon="5.5161">
        <ele>1177</ele>
        <time>2010-01-01T00:10:48Z</time>
      </trkpt>
      <trkpt lat="45.01953" lon="5.51611">
        <ele>1177</ele>
        <time>2010-01-01T00:10:49Z</time>
      </trkpt>
      <trkpt lat="45.01938" lon="5.51612">
        <ele>1178</ele>
        <time>2010-01-01T00:10:54Z</time>
      </trkpt>
      <trkpt lat="45.01931" lon="5.51613">
        <ele>1178</ele>
        <time>2010-01-01T00:10:57Z</time>
      </trkpt>
      <trkpt lat="45.01922" lon="5.51614">
        <ele>1178</ele>
        <time>2010-01-01T00:11:01Z</time>
      </trkpt>
      <trkpt lat="45.01913" lon="5.51615">
        <ele>1181</ele>
        <time>2010-01-01T00:11:04Z</time>
      </trkpt>
      <trkpt lat="45.01905" lon="5.51615">
        <ele>1181</ele>
        <time>2010-01-01T00:11:08Z</time>
      </trkpt>
      <trkpt lat="45.01898" lon="5.51615">
        <ele>1182</ele>
        <time>2010-01-01T00:11:11Z</time>
      </trkpt>
      <trkpt lat="45.0189" lon="5.51615">
        <ele>1182</ele>
        <time>2010-01-01T00:11:14Z</time>
      </trkpt>
      <trkpt lat="45.01883" lon="5.51615">
        <ele>1182</ele>
        <time>2010-01-01T00:11:17Z</time>
      </trkpt>
      <trkpt lat="45.01875" lon="5.51616">
        <ele>1182</ele>
        <time>2010-01-01T00:11:20Z</time>
      </trkpt>
      <trkpt lat="45.01868" lon="5.51617">
        <ele>1182</ele>
        <time>2010-01-01T00:11:23Z</time>
      </trkpt>
      <trkpt lat="45.01861" lon="5.51617">
        <ele>1182</ele>
        <time>2010-01-01T00:11:25Z</time>
      </trkpt>
      <trkpt lat="45.01854" lon="5.51616">
        <ele>1182</ele>
        <time>2010-01-01T00:11:28Z</time>
      </trkpt>
      <trkpt lat="45.01846" lon="5.51618">
        <ele>1182</ele>
        <time>2010-01-01T00:11:32Z</time>
      </trkpt>
      <trkpt lat="45.01838" lon="5.5162">
        <ele>1182</ele>
        <time>2010-01-01T00:11:35Z</time>
      </trkpt>
      <trkpt lat="45.0183" lon="5.51623">
        <ele>1184</ele>
        <time>2010-01-01T00:11:38Z</time>
      </trkpt>
      <trkpt lat="45.01822" lon="5.51627">
        <ele>1185</ele>
        <time>2010-01-01T00:11:41Z</time>
      </trkpt>
      <trkpt lat="45.01814" lon="5.5163">
        <ele>1185</ele>
        <time>2010-01-01T00:11:45Z</time>
      </trkpt>
      <trkpt lat="45.01812" lon="5.51632">
        <ele>1185</ele>
        <time>2010-01-01T00:11:46Z</time>
      </trkpt>
      <trkpt lat="45.018" lon="5.51632">
        <ele>1185</ele>
        <time>2010-01-01T00:11:51Z</time>
      </trkpt>
      <trkpt lat="45.01792" lon="5.51632">
        <ele>1185</ele>
        <time>2010-01-01T00:11:54Z</time>
      </trkpt>
      <trkpt lat="45.01784" lon="5.51633">
        <ele>1185</ele>
        <time>2010-01-01T00:11:57Z</time>
      </trkpt>
      <trkpt lat="45.01776" lon="5.51636">
        <ele>1186</ele>
        <time>2010-01-01T00:12:00Z</time>
      </trkpt>
      <trkpt lat="45.01769" lon="5.51638">
        <ele>1186</ele>
        <time>2010-01-01T00:12:03Z</time>
      </trkpt>
      <trkpt lat="45.01761" lon="5.51641">
        <ele>1186</ele>
        <time>2010-01-01T00:12:06Z</time>
      </trkpt>
      <trkpt lat="45.01753" lon="5.51644">
        <ele>1187</ele>
        <time>2010-01-01T00:12:10Z</time>
      </trkpt>
      <trkpt lat="45.01746" lon="5.51648">
        <ele>1189</ele>
        <time>2010-01-01T00:12:13Z</time>
      </trkpt>
      <trkpt lat="45.01737" lon="5.51651">
        <ele>1189</ele>
        <time>2010-01-01T00:12:16Z</time>
      </trkpt>
      <trkpt lat="45.0173" lon="5.51654">
        <ele>1189</ele>
        <time>2010-01-01T00:12:19Z</time>
      </trkpt>
      <trkpt lat="45.01724" lon="5.51657">
        <ele>1189</ele>
        <time>2010-01-01T00:12:22Z</time>
      </trkpt>
      <trkpt lat="45.01715" lon="5.5166">
        <ele>1189</ele>
        <time>2010-01-01T00:12:25Z</time>
      </trkpt>
      <trkpt lat="45.01708" lon="5.51666">
        <ele>1190</ele>
        <time>2010-01-01T00:12:29Z</time>
      </trkpt>
      <trkpt lat="45.017" lon="5.5167">
        <ele>1195</ele>
        <time>2010-01-01T00:12:32Z</time>
      </trkpt>
      <trkpt lat="45.01694" lon="5.51672">
        <ele>1194</ele>
        <time>2010-01-01T00:12:35Z</time>
      </trkpt>
      <trkpt lat="45.01686" lon="5.51675">
        <ele>1194</ele>
        <time>2010-01-01T00:12:38Z</time>
      </trkpt>
      <trkpt lat="45.01684" lon="5.51676">
        <ele>1194</ele>
        <time>2010-01-01T00:12:39Z</time>
      </trkpt>
      <trkpt lat="45.01672" lon="5.51683">
        <ele>1194</ele>
        <time>2010-01-01T00:12:44Z</time>
      </trkpt>
      <trkpt lat="45.01665" lon="5.5169">
        <ele>1196</ele>
        <time>2010-01-01T00:12:48Z</time>
      </trkpt>
      <trkpt lat="45.01658" lon="5.51696">
        <ele>1197</ele>
        <time>2010-01-01T00:12:51Z</time>
      </trkpt>
      <trkpt lat="45.01652" lon="5.51703">
        <ele>1198</ele>
        <time>2010-01-01T00:12:54Z</time>
      </trkpt>
      <trkpt lat="45.01645" lon="5.51711">
        <ele>1199</ele>
        <time>2010-01-01T00:12:57Z</time>
      </trkpt>
      <trkpt lat="45.01638" lon="5.51716">
        <ele>1199</ele>
        <time>2010-01-01T00:13:01Z</time>
      </trkpt>
      <trkpt lat="45.01632" lon="5.51719">
        <ele>1199</ele>
        <time>2010-01-01T00:13:03Z</time>
      </trkpt>
      <trkpt lat="45.01623" lon="5.51722">
        <ele>1200</ele>
        <time>2010-01-01T00:13:07Z</time>
      </trkpt>
      <trkpt lat="45.01617" lon="5.51729">
        <ele>1200</ele>
        <time>2010-01-01T00:13:10Z</time>
      </trkpt>
      <trkpt lat="45.0161" lon="5.51735">
        <ele>1201</ele>
        <time>2010-01-01T00:13:13Z</time>
      </trkpt>
      <trkpt lat="45.01604" lon="5.51741">
        <ele>1201</ele>
        <time>2010-01-01T00:13:16Z</time>
      </trkpt>
      <trkpt lat="45.01596" lon="5.51744">
        <ele>1202</ele>
        <time>2010-01-01T00:13:19Z</time>
      </trkpt>
      <trkpt lat="45.01588" lon="5.51746">
        <ele>1203</ele>
        <time>2010-01-01T00:13:23Z</time>
      </trkpt>
      <trkpt lat="45.0158" lon="5.51749">
        <ele>1204</ele>
        <time>2010-01-01T00:13:26Z</time>
      </trkpt>
      <trkpt lat="45.01578" lon="5.5175">
        <ele>1204</ele>
        <time>2010-01-01T00:13:27Z</time>
      </trkpt>
      <trkpt lat="45.01566" lon="5.51755">
        <ele>1207</ele>
        <time>2010-01-01T00:13:32Z</time>
      </trkpt>
      <trkpt lat="45.01557" lon="5.51757">
        <ele>1208</ele>
        <time>2010-01-01T00:13:35Z</time>
      </trkpt>
      <trkpt lat="45.01549" lon="5.51758">
        <ele>1208</ele>
        <time>2010-01-01T00:13:39Z</time>
      </trkpt>
      <trkpt lat="45.01541" lon="5.5176">
        <ele>1209</ele>
        <time>2010-01-01T00:13:42Z</time>
      </trkpt>
      <trkpt lat="45.01535" lon="5.51762">
        <ele>1209</ele>
        <time>2010-01-01T00:13:45Z</time>
      </trkpt>
      <trkpt lat="45.01528" lon="5.51765">
        <ele>1209</ele>
        <time>2010-01-01T00:13:48Z</time>
      </trkpt>
      <trkpt lat="45.01521" lon="5.51768">
        <ele>1209</ele>
        <time>2010-01-01T00:13:50Z</time>
      </trkpt>
      <trkpt lat="45.01513" lon="5.51771">
        <ele>1209</ele>
        <time>2010-01-01T00:13:54Z</time>
      </trkpt>
      <trkpt lat="45.01506" lon="5.51772">
        <ele>1209</ele>
        <time>2010-01-01T00:13:56Z</time>
      </trkpt>
      <trkpt lat="45.01499" lon="5.51774">
        <ele>1211</ele>
        <time>2010-01-01T00:13:59Z</time>
      </trkpt>
      <trkpt lat="45.01491" lon="5.51775">
        <ele>1211</ele>
        <time>2010-01-01T00:14:03Z</time>
      </trkpt>
      <trkpt lat="45.01484" lon="5.51777">
        <ele>1212</ele>
        <time>2010-01-01T00:14:06Z</time>
      </trkpt>
      <trkpt lat="45.01475" lon="5.51779">
        <ele>1212</ele>
        <time>2010-01-01T00:14:09Z</time>
      </trkpt>
      <trkpt lat="45.01467" lon="5.5178">
        <ele>1213</ele>
        <time>2010-01-01T00:14:12Z</time>
      </trkpt>
      <trkpt lat="45.0146" lon="5.51781">
        <ele>1213</ele>
        <time>2010-01-01T00:14:15Z</time>
      </trkpt>
      <trkpt lat="45.01452" lon="5.51782">
        <ele>1213</ele>
        <time>2010-01-01T00:14:18Z</time>
      </trkpt>
      <trkpt lat="45.01443" lon="5.51782">
        <ele>1213</ele>
        <time>2010-01-01T00:14:22Z</time>
      </trkpt>
      <trkpt lat="45.01441" lon="5.51781">
        <ele>1213</ele>
        <time>2010-01-01T00:14:23Z</time>
      </trkpt>
      <trkpt lat="45.01426" lon="5.51781">
        <ele>1213</ele>
        <time>2010-01-01T00:14:29Z</time>
      </trkpt>
      <trkpt lat="45.0142" lon="5.51781">
        <ele>1213</ele>
        <time>2010-01-01T00:14:31Z</time>
      </trkpt>
      <trkpt lat="45.01412" lon="5.51781">
        <ele>1216</ele>
        <time>2010-01-01T00:14:34Z</time>
      </trkpt>
      <trkpt lat="45.01403" lon="5.51779">
        <ele>1216</ele>
        <time>2010-01-01T00:14:38Z</time>
      </trkpt>
      <trkpt lat="45.01396" lon="5.51777">
        <ele>1216</ele>
        <time>2010-01-01T00:14:41Z</time>
      </trkpt>
      <trkpt lat="45.01388" lon="5.51778">
        <ele>1216</ele>
        <time>2010-01-01T00:14:44Z</time>
      </trkpt>
      <trkpt lat="45.01381" lon="5.5178">
        <ele>1217</ele>
        <time>2010-01-01T00:14:47Z</time>
      </trkpt>
      <trkpt lat="45.01372" lon="5.51781">
        <ele>1217</ele>
        <time>2010-01-01T00:14:51Z</time>
      </trkpt>
      <trkpt lat="45.01365" lon="5.51782">
        <ele>1217</ele>
        <time>2010-01-01T00:14:54Z</time>
      </trkpt>
      <trkpt lat="45.01357" lon="5.51782">
        <ele>1217</ele>
        <time>2010-01-01T00:14:56Z</time>
      </trkpt>
      <trkpt lat="45.01349" lon="5.51783">
        <ele>1217</ele>
        <time>2010-01-01T00:15:00Z</time>
      </trkpt>
      <trkpt lat="45.01342" lon="5.51784">
        <ele>1218</ele>
        <time>2010-01-01T00:15:03Z</time>
      </trkpt>
      <trkpt lat="45.01333" lon="5.51785">
        <ele>1220</ele>
        <time>2010-01-01T00:15:06Z</time>
      </trkpt>
      <trkpt lat="45.01325" lon="5.51788">
        <ele>1220</ele>
        <time>2010-01-01T00:15:10Z</time>
      </trkpt>
      <trkpt lat="45.01317" lon="5.51793">
        <ele>1221</ele>
        <time>2010-01-01T00:15:13Z</time>
      </trkpt>
      <trkpt lat="45.01311" lon="5.51796">
        <ele>1221</ele>
        <time>2010-01-01T00:15:16Z</time>
      </trkpt>
      <trkpt lat="45.01303" lon="5.518">
        <ele>1221</ele>
        <time>2010-01-01T00:15:19Z</time>
      </trkpt>
      <trkpt lat="45.01301" lon="5.51802">
        <ele>1221</ele>
        <time>2010-01-01T00:15:20Z</time>
      </trkpt>
      <trkpt lat="45.01289" lon="5.51811">
        <ele>1222</ele>
        <time>2010-01-01T00:15:25Z</time>
      </trkpt>
      <trkpt lat="45.01282" lon="5.51819">
        <ele>1222</ele>
        <time>2010-01-01T00:15:29Z</time>
      </trkpt>
      <trkpt lat="45.01277" lon="5.51827">
        <ele>1222</ele>
        <time>2010-01-01T00:15:32Z</time>
      </trkpt>
      <trkpt lat="45.01272" lon="5.51835">
        <ele>1225</ele>
        <time>2010-01-01T00:15:35Z</time>
      </trkpt>
      <trkpt lat="45.01266" lon="5.51843">
        <ele>1225</ele>
        <time>2010-01-01T00:15:38Z</time>
      </trkpt>
      <trkpt lat="45.0126" lon="5.5185">
        <ele>1225</ele>
        <time>2010-01-01T00:15:41Z</time>
      </trkpt>
      <trkpt lat="45.01252" lon="5.51856">
        <ele>1225</ele>
        <time>2010-01-01T00:15:45Z</time>
      </trkpt>
      <trkpt lat="45.01245" lon="5.51862">
        <ele>1226</ele>
        <time>2010-01-01T00:15:48Z</time>
      </trkpt>
      <trkpt lat="45.01237" lon="5.51867">
        <ele>1227</ele>
        <time>2010-01-01T00:15:52Z</time>
      </trkpt>
      <trkpt lat="45.01231" lon="5.51871">
        <ele>1227</ele>
        <time>2010-01-01T00:15:55Z</time>
      </trkpt>
      <trkpt lat="45.01223" lon="5.51874">
        <ele>1227</ele>
        <time>2010-01-01T00:15:58Z</time>
      </trkpt>
      <trkpt lat="45.01215" lon="5.51877">
        <ele>1228</ele>
        <time>2010-01-01T00:16:01Z</time>
      </trkpt>
      <trkpt lat="45.01209" lon="5.5188">
        <ele>1228</ele>
        <time>2010-01-01T00:16:04Z</time>
      </trkpt>
      <trkpt lat="45.01202" lon="5.51882">
        <ele>1228</ele>
        <time>2010-01-01T00:16:07Z</time>
      </trkpt>
      <trkpt lat="45.01194" lon="5.51883">
        <ele>1228</ele>
        <time>2010-01-01T00:16:10Z</time>
      </trkpt>
      <trkpt lat="45.01187" lon="5.51884">
        <ele>1228</ele>
        <time>2010-01-01T00:16:13Z</time>
      </trkpt>
      <trkpt lat="45.0118" lon="5.51886">
        <ele>1229</ele>
        <time>2010-01-01T00:16:15Z</time>
      </trkpt>
      <trkpt lat="45.01173" lon="5.51891">
        <ele>1229</ele>
        <time>2010-01-01T00:16:18Z</time>
      </trkpt>
      <trkpt lat="45.01171" lon="5.51892">
        <ele>1229</ele>
        <time>2010-01-01T00:16:19Z</time>
      </trkpt>
      <trkpt lat="45.01159" lon="5.51901">
        <ele>1231</ele>
        <time>2010-01-01T00:16:25Z</time>
      </trkpt>
      <trkpt lat="45.01151" lon="5.51906">
        <ele>1231</ele>
        <time>2010-01-01T00:16:28Z</time>
      </trkpt>
      <trkpt lat="45.01145" lon="5.51912">
        <ele>1231</ele>
        <time>2010-01-01T00:16:31Z</time>
      </trkpt>
      <trkpt lat="45.01138" lon="5.51915">
        <ele>1231</ele>
        <time>2010-01-01T00:16:34Z</time>
      </trkpt>
      <trkpt lat="45.01131" lon="5.51917">
        <ele>1235</ele>
        <time>2010-01-01T00:16:37Z</time>
      </trkpt>
      <trkpt lat="45.01123" lon="5.51919">
        <ele>1235</ele>
        <time>2010-01-01T00:16:40Z</time>
      </trkpt>
      <trkpt lat="45.01116" lon="5.51919">
        <ele>1235</ele>
        <time>2010-01-01T00:16:43Z</time>
      </trkpt>
      <trkpt lat="45.01108" lon="5.51921">
        <ele>1235</ele>
        <time>2010-01-01T00:16:46Z</time>
      </trkpt>
      <trkpt lat="45.011" lon="5.51922">
        <ele>1235</ele>
        <time>2010-01-01T00:16:49Z</time>
      </trkpt>
      <trkpt lat="45.01091" lon="5.51923">
        <ele>1235</ele>
        <time>2010-01-01T00:16:53Z</time>
      </trkpt>
      <trkpt lat="45.01083" lon="5.51925">
        <ele>1236</ele>
        <time>2010-01-01T00:16:56Z</time>
      </trkpt>
      <trkpt lat="45.01076" lon="5.5193">
        <ele>1237</ele>
        <time>2010-01-01T00:16:59Z</time>
      </trkpt>
      <trkpt lat="45.0107" lon="5.51937">
        <ele>1238</ele>
        <time>2010-01-01T00:17:03Z</time>
      </trkpt>
      <trkpt lat="45.01063" lon="5.51942">
        <ele>1239</ele>
        <time>2010-01-01T00:17:06Z</time>
      </trkpt>
      <trkpt lat="45.01055" lon="5.51947">
        <ele>1240</ele>
        <time>2010-01-01T00:17:09Z</time>
      </trkpt>
      <trkpt lat="45.01053" lon="5.51949">
        <ele>1240</ele>
        <time>2010-01-01T00:17:10Z</time>
      </trkpt>
      <trkpt lat="45.01045" lon="5.51966">
        <ele>1241</ele>
        <time>2010-01-01T00:17:16Z</time>
      </trkpt>
      <trkpt lat="45.01039" lon="5.51973">
        <ele>1241</ele>
        <time>2010-01-01T00:17:19Z</time>
      </trkpt>
      <trkpt lat="45.01033" lon="5.51978">
        <ele>1242</ele>
        <time>2010-01-01T00:17:22Z</time>
      </trkpt>
      <trkpt lat="45.01026" lon="5.51983">
        <ele>1242</ele>
        <time>2010-01-01T00:17:25Z</time>
      </trkpt>
      <trkpt lat="45.01019" lon="5.51987">
        <ele>1243</ele>
        <time>2010-01-01T00:17:28Z</time>
      </trkpt>
      <trkpt lat="45.01013" lon="5.51994">
        <ele>1243</ele>
        <time>2010-01-01T00:17:31Z</time>
      </trkpt>
      <trkpt lat="45.01005" lon="5.51996">
        <ele>1244</ele>
        <time>2010-01-01T00:17:34Z</time>
      </trkpt>
      <trkpt lat="45.00999" lon="5.52">
        <ele>1245</ele>
        <time>2010-01-01T00:17:37Z</time>
      </trkpt>
      <trkpt lat="45.00991" lon="5.52006">
        <ele>1246</ele>
        <time>2010-01-01T00:17:41Z</time>
      </trkpt>
      <trkpt lat="45.00984" lon="5.5201">
        <ele>1247</ele>
        <time>2010-01-01T00:17:44Z</time>
      </trkpt>
      <trkpt lat="45.00975" lon="5.52013">
        <ele>1248</ele>
        <time>2010-01-01T00:17:47Z</time>
      </trkpt>
      <trkpt lat="45.00967" lon="5.52017">
        <ele>1248</ele>
        <time>2010-01-01T00:17:51Z</time>
      </trkpt>
      <trkpt lat="45.00959" lon="5.52017">
        <ele>1248</ele>
        <time>2010-01-01T00:17:54Z</time>
      </trkpt>
      <trkpt lat="45.00957" lon="5.52016">
        <ele>1248</ele>
        <time>2010-01-01T00:17:55Z</time>
      </trkpt>
      <trkpt lat="45.00945" lon="5.52007">
        <ele>1249</ele>
        <time>2010-01-01T00:18:01Z</time>
      </trkpt>
      <trkpt lat="45.00937" lon="5.52001">
        <ele>1249</ele>
        <time>2010-01-01T00:18:04Z</time>
      </trkpt>
      <trkpt lat="45.00931" lon="5.51994">
        <ele>1248</ele>
        <time>2010-01-01T00:18:07Z</time>
      </trkpt>
      <trkpt lat="45.00925" lon="5.51988">
        <ele>1248</ele>
        <time>2010-01-01T00:18:10Z</time>
      </trkpt>
      <trkpt lat="45.00917" lon="5.51985">
        <ele>1248</ele>
        <time>2010-01-01T00:18:13Z</time>
      </trkpt>
      <trkpt lat="45.00912" lon="5.51983">
        <ele>1251</ele>
        <time>2010-01-01T00:18:16Z</time>
      </trkpt>
      <trkpt lat="45.00905" lon="5.51979">
        <ele>1252</ele>
        <time>2010-01-01T00:18:19Z</time>
      </trkpt>
      <trkpt lat="45.00899" lon="5.51976">
        <ele>1252</ele>
        <time>2010-01-01T00:18:21Z</time>
      </trkpt>
      <trkpt lat="45.00891" lon="5.5197">
        <ele>1253</ele>
        <time>2010-01-01T00:18:25Z</time>
      </trkpt>
      <trkpt lat="45.00884" lon="5.51967">
        <ele>1253</ele>
        <time>2010-01-01T00:18:28Z</time>
      </trkpt>
      <trkpt lat="45.00877" lon="5.51964">
        <ele>1254</ele>
        <time>2010-01-01T00:18:31Z</time>
      </trkpt>
      <trkpt lat="45.0087" lon="5.51958">
        <ele>1254</ele>
        <time>2010-01-01T00:18:34Z</time>
      </trkpt>
      <trkpt lat="45.00863" lon="5.51951">
        <ele>1255</ele>
        <time>2010-01-01T00:18:37Z</time>
      </trkpt>
      <trkpt lat="45.00856" lon="5.51945">
        <ele>1255</ele>
        <time>2010-01-01T00:18:41Z</time>
      </trkpt>
      <trkpt lat="45.00848" lon="5.5194">
        <ele>1256</ele>
        <time>2010-01-01T00:18:44Z</time>
      </trkpt>
      <trkpt lat="45.00846" lon="5.51939">
        <ele>1256</ele>
        <time>2010-01-01T00:18:45Z</time>
      </trkpt>
      <trkpt lat="45.00834" lon="5.51929">
        <ele>1257</ele>
        <time>2010-01-01T00:18:50Z</time>
      </trkpt>
      <trkpt lat="45.00828" lon="5.51924">
        <ele>1260</ele>
        <time>2010-01-01T00:18:53Z</time>
      </trkpt>
      <trkpt lat="45.00822" lon="5.51919">
        <ele>1261</ele>
        <time>2010-01-01T00:18:56Z</time>
      </trkpt>
      <trkpt lat="45.00814" lon="5.51914">
        <ele>1261</ele>
        <time>2010-01-01T00:18:59Z</time>
      </trkpt>
      <trkpt lat="45.00807" lon="5.5191">
        <ele>1262</ele>
        <time>2010-01-01T00:19:02Z</time>
      </trkpt>
      <trkpt lat="45.00799" lon="5.51904">
        <ele>1263</ele>
        <time>2010-01-01T00:19:06Z</time>
      </trkpt>
      <trkpt lat="45.00791" lon="5.519">
        <ele>1263</ele>
        <time>2010-01-01T00:19:09Z</time>
      </trkpt>
      <trkpt lat="45.00783" lon="5.51896">
        <ele>1264</ele>
        <time>2010-01-01T00:19:13Z</time>
      </trkpt>
      <trkpt lat="45.00776" lon="5.51896">
        <ele>1264</ele>
        <time>2010-01-01T00:19:16Z</time>
      </trkpt>
      <trkpt lat="45.00767" lon="5.51896">
        <ele>1265</ele>
        <time>2010-01-01T00:19:19Z</time>
      </trkpt>
      <trkpt lat="45.00759" lon="5.51897">
        <ele>1266</ele>
        <time>2010-01-01T00:19:23Z</time>
      </trkpt>
      <trkpt lat="45.00752" lon="5.51901">
        <ele>1266</ele>
        <time>2010-01-01T00:19:25Z</time>
      </trkpt>
      <trkpt lat="45.00745" lon="5.51903">
        <ele>1270</ele>
        <time>2010-01-01T00:19:29Z</time>
      </trkpt>
      <trkpt lat="45.00737" lon="5.51903">
        <ele>1270</ele>
        <time>2010-01-01T00:19:32Z</time>
      </trkpt>
      <trkpt lat="45.0073" lon="5.51904">
        <ele>1271</ele>
        <time>2010-01-01T00:19:34Z</time>
      </trkpt>
      <trkpt lat="45.00722" lon="5.51906">
        <ele>1272</ele>
        <time>2010-01-01T00:19:38Z</time>
      </trkpt>
      <trkpt lat="45.0072" lon="5.51906">
        <ele>1272</ele>
        <time>2010-01-01T00:19:39Z</time>
      </trkpt>
      <trkpt lat="45.00706" lon="5.51907">
        <ele>1273</ele>
        <time>2010-01-01T00:19:44Z</time>
      </trkpt>
      <trkpt lat="45.00699" lon="5.51903">
        <ele>1273</ele>
        <time>2010-01-01T00:19:47Z</time>
      </trkpt>
      <trkpt lat="45.00692" lon="5.519">
        <ele>1274</ele>
        <time>2010-01-01T00:19:50Z</time>
      </trkpt>
      <trkpt lat="45.00686" lon="5.51895">
        <ele>1274</ele>
        <time>2010-01-01T00:19:53Z</time>
      </trkpt>
      <trkpt lat="45.00679" lon="5.5189">
        <ele>1274</ele>
        <time>2010-01-01T00:19:56Z</time>
      </trkpt>
      <trkpt lat="45.00672" lon="5.51885">
        <ele>1274</ele>
        <time>2010-01-01T00:19:59Z</time>
      </trkpt>
      <trkpt lat="45.00665" lon="5.51878">
        <ele>1282</ele>
        <time>2010-01-01T00:20:02Z</time>
      </trkpt>
      <trkpt lat="45.0066" lon="5.51868">
        <ele>1282</ele>
        <time>2010-01-01T00:20:06Z</time>
      </trkpt>
      <trkpt lat="45.00654" lon="5.5186">
        <ele>1282</ele>
        <time>2010-01-01T00:20:09Z</time>
      </trkpt>
      <trkpt lat="45.00648" lon="5.51851">
        <ele>1282</ele>
        <time>2010-01-01T00:20:13Z</time>
      </trkpt>
      <trkpt lat="45.00644" lon="5.51842">
        <ele>1282</ele>
        <time>2010-01-01T00:20:16Z</time>
      </trkpt>
      <trkpt lat="45.00639" lon="5.51833">
        <ele>1282</ele>
        <time>2010-01-01T00:20:19Z</time>
      </trkpt>
      <trkpt lat="45.00634" lon="5.51825">
        <ele>1283</ele>
        <time>2010-01-01T00:20:22Z</time>
      </trkpt>
      <trkpt lat="45.00629" lon="5.51815">
        <ele>1284</ele>
        <time>2010-01-01T00:20:25Z</time>
      </trkpt>
      <trkpt lat="45.00627" lon="5.51803">
        <ele>1284</ele>
        <time>2010-01-01T00:20:29Z</time>
      </trkpt>
      <trkpt lat="45.00627" lon="5.51801">
        <ele>1284</ele>
        <time>2010-01-01T00:20:30Z</time>
      </trkpt>
      <trkpt lat="45.00628" lon="5.5178">
        <ele>1284</ele>
        <time>2010-01-01T00:20:36Z</time>
      </trkpt>
      <trkpt lat="45.00626" lon="5.51769">
        <ele>1284</ele>
        <time>2010-01-01T00:20:39Z</time>
      </trkpt>
      <trkpt lat="45.0062" lon="5.51761">
        <ele>1285</ele>
        <time>2010-01-01T00:20:42Z</time>
      </trkpt>
      <trkpt lat="45.00613" lon="5.51754">
        <ele>1286</ele>
        <time>2010-01-01T00:20:46Z</time>
      </trkpt>
      <trkpt lat="45.00605" lon="5.51749">
        <ele>1285</ele>
        <time>2010-01-01T00:20:49Z</time>
      </trkpt>
      <trkpt lat="45.00598" lon="5.51745">
        <ele>1287</ele>
        <time>2010-01-01T00:20:52Z</time>
      </trkpt>
      <trkpt lat="45.0059" lon="5.51739">
        <ele>1287</ele>
        <time>2010-01-01T00:20:56Z</time>
      </trkpt>
      <trkpt lat="45.00583" lon="5.51736">
        <ele>1293</ele>
        <time>2010-01-01T00:20:59Z</time>
      </trkpt>
      <trkpt lat="45.00574" lon="5.51732">
        <ele>1294</ele>
        <time>2010-01-01T00:21:02Z</time>
      </trkpt>
      <trkpt lat="45.00566" lon="5.51727">
        <ele>1295</ele>
        <time>2010-01-01T00:21:06Z</time>
      </trkpt>
      <trkpt lat="45.00565" lon="5.51727">
        <ele>1295</ele>
        <time>2010-01-01T00:21:06Z</time>
      </trkpt>
      <trkpt lat="45.00552" lon="5.51719">
        <ele>1296</ele>
        <time>2010-01-01T00:21:12Z</time>
      </trkpt>
      <trkpt lat="45.00544" lon="5.51715">
        <ele>1297</ele>
        <time>2010-01-01T00:21:16Z</time>
      </trkpt>
      <trkpt lat="45.00535" lon="5.51711">
        <ele>1297</ele>
        <time>2010-01-01T00:21:19Z</time>
      </trkpt>
      <trkpt lat="45.00527" lon="5.51708">
        <ele>1298</ele>
        <time>2010-01-01T00:21:22Z</time>
      </trkpt>
      <trkpt lat="45.0052" lon="5.51703">
        <ele>1298</ele>
        <time>2010-01-01T00:21:26Z</time>
      </trkpt>
      <trkpt lat="45.00512" lon="5.51699">
        <ele>1299</ele>
        <time>2010-01-01T00:21:29Z</time>
      </trkpt>
      <trkpt lat="45.00503" lon="5.51696">
        <ele>1299</ele>
        <time>2010-01-01T00:21:33Z</time>
      </trkpt>
      <trkpt lat="45.00496" lon="5.51694">
        <ele>1308</ele>
        <time>2010-01-01T00:21:36Z</time>
      </trkpt>
      <trkpt lat="45.00487" lon="5.51691">
        <ele>1309</ele>
        <time>2010-01-01T00:21:39Z</time>
      </trkpt>
      <trkpt lat="45.00479" lon="5.51691">
        <ele>1309</ele>
        <time>2010-01-01T00:21:43Z</time>
      </trkpt>
      <trkpt lat="45.0047" lon="5.51693">
        <ele>1311</ele>
        <time>2010-01-01T00:21:46Z</time>
      </trkpt>
      <trkpt lat="45.0047" lon="5.51694">
        <ele>1311</ele>
        <time>2010-01-01T00:21:46Z</time>
      </trkpt>
      <trkpt lat="45.00454" lon="5.5169">
        <ele>1312</ele>
        <time>2010-01-01T00:21:53Z</time>
      </trkpt>
      <trkpt lat="45.00445" lon="5.51686">
        <ele>1313</ele>
        <time>2010-01-01T00:21:57Z</time>
      </trkpt>
      <trkpt lat="45.00436" lon="5.51684">
        <ele>1314</ele>
        <time>2010-01-01T00:22:00Z</time>
      </trkpt>
      <trkpt lat="45.0043" lon="5.51684">
        <ele>1314</ele>
        <time>2010-01-01T00:22:03Z</time>
      </trkpt>
      <trkpt lat="45.00421" lon="5.51683">
        <ele>1315</ele>
        <time>2010-01-01T00:22:06Z</time>
      </trkpt>
      <trkpt lat="45.00414" lon="5.51682">
        <ele>1320</ele>
        <time>2010-01-01T00:22:09Z</time>
      </trkpt>
      <trkpt lat="45.00407" lon="5.51681">
        <ele>1321</ele>
        <time>2010-01-01T00:22:12Z</time>
      </trkpt>
      <trkpt lat="45.004" lon="5.51681">
        <ele>1322</ele>
        <time>2010-01-01T00:22:15Z</time>
      </trkpt>
      <trkpt lat="45.00392" lon="5.51678">
        <ele>1323</ele>
        <time>2010-01-01T00:22:18Z</time>
      </trkpt>
      <trkpt lat="45.00384" lon="5.51677">
        <ele>1324</ele>
        <time>2010-01-01T00:22:21Z</time>
      </trkpt>
      <trkpt lat="45.00376" lon="5.51676">
        <ele>1324</ele>
        <time>2010-01-01T00:22:24Z</time>
      </trkpt>
      <trkpt lat="45.00368" lon="5.51675">
        <ele>1325</ele>
        <time>2010-01-01T00:22:28Z</time>
      </trkpt>
      <trkpt lat="45.00359" lon="5.51673">
        <ele>1325</ele>
        <time>2010-01-01T00:22:31Z</time>
      </trkpt>
      <trkpt lat="45.00357" lon="5.51672">
        <ele>1325</ele>
        <time>2010-01-01T00:22:32Z</time>
      </trkpt>
      <trkpt lat="45.00344" lon="5.51668">
        <ele>1325</ele>
        <time>2010-01-01T00:22:38Z</time>
      </trkpt>
      <trkpt lat="45.00336" lon="5.51667">
        <ele>1325</ele>
        <time>2010-01-01T00:22:40Z</time>
      </trkpt>
      <trkpt lat="45.00329" lon="5.51666">
        <ele>1325</ele>
        <time>2010-01-01T00:22:43Z</time>
      </trkpt>
      <trkpt lat="45.00321" lon="5.51665">
        <ele>1324</ele>
        <time>2010-01-01T00:22:47Z</time>
      </trkpt>
      <trkpt lat="45.00314" lon="5.51665">
        <ele>1324</ele>
        <time>2010-01-01T00:22:50Z</time>
      </trkpt>
      <trkpt lat="45.00306" lon="5.51664">
        <ele>1324</ele>
        <time>2010-01-01T00:22:53Z</time>
      </trkpt>
      <trkpt lat="45.00297" lon="5.51663">
        <ele>1325</ele>
        <time>2010-01-01T00:22:56Z</time>
      </trkpt>
      <trkpt lat="45.00289" lon="5.51663">
        <ele>1325</ele>
        <time>2010-01-01T00:23:00Z</time>
      </trkpt>
      <trkpt lat="45.00281" lon="5.51664">
        <ele>1326</ele>
        <time>2010-01-01T00:23:03Z</time>
      </trkpt>
      <trkpt lat="45.00272" lon="5.51663">
        <ele>1327</ele>
        <time>2010-01-01T00:23:06Z</time>
      </trkpt>
      <trkpt lat="45.00264" lon="5.51662">
        <ele>1329</ele>
        <time>2010-01-01T00:23:10Z</time>
      </trkpt>
      <trkpt lat="45.00256" lon="5.51661">
        <ele>1331</ele>
        <time>2010-01-01T00:23:13Z</time>
      </trkpt>
      <trkpt lat="45.00249" lon="5.51658">
        <ele>1333</ele>
        <time>2010-01-01T00:23:16Z</time>
      </trkpt>
      <trkpt lat="45.00241" lon="5.51656">
        <ele>1332</ele>
        <time>2010-01-01T00:23:19Z</time>
      </trkpt>
      <trkpt lat="45.00232" lon="5.51659">
        <ele>1332</ele>
        <time>2010-01-01T00:23:23Z</time>
      </trkpt>
      <trkpt lat="45.00231" lon="5.51658">
        <ele>1332</ele>
        <time>2010-01-01T00:23:23Z</time>
      </trkpt>
      <trkpt lat="45.00217" lon="5.51654">
        <ele>1332</ele>
        <time>2010-01-01T00:23:29Z</time>
      </trkpt>
      <trkpt lat="45.0021" lon="5.51654">
        <ele>1332</ele>
        <time>2010-01-01T00:23:32Z</time>
      </trkpt>
      <trkpt lat="45.00202" lon="5.51654">
        <ele>1332</ele>
        <time>2010-01-01T00:23:35Z</time>
      </trkpt>
      <trkpt lat="45.00194" lon="5.51658">
        <ele>1333</ele>
        <time>2010-01-01T00:23:38Z</time>
      </trkpt>
      <trkpt lat="45.00186" lon="5.51662">
        <ele>1334</ele>
        <time>2010-01-01T00:23:42Z</time>
      </trkpt>
      <trkpt lat="45.00177" lon="5.51666">
        <ele>1336</ele>
        <time>2010-01-01T00:23:45Z</time>
      </trkpt>
      <trkpt lat="45.0017" lon="5.51666">
        <ele>1338</ele>
        <time>2010-01-01T00:23:48Z</time>
      </trkpt>
      <trkpt lat="45.00162" lon="5.51669">
        <ele>1341</ele>
        <time>2010-01-01T00:23:51Z</time>
      </trkpt>
      <trkpt lat="45.00154" lon="5.51667">
        <ele>1344</ele>
        <time>2010-01-01T00:23:55Z</time>
      </trkpt>
      <trkpt lat="45.00146" lon="5.51669">
        <ele>1346</ele>
        <time>2010-01-01T00:23:58Z</time>
      </trkpt>
      <trkpt lat="45.00137" lon="5.51673">
        <ele>1348</ele>
        <time>2010-01-01T00:24:02Z</time>
      </trkpt>
      <trkpt lat="45.00135" lon="5.51674">
        <ele>1348</ele>
        <time>2010-01-01T00:24:03Z</time>
      </trkpt>
      <trkpt lat="45.00122" lon="5.51677">
        <ele>1349</ele>
        <time>2010-01-01T00:24:08Z</time>
      </trkpt>
      <trkpt lat="45.00114" lon="5.51682">
        <ele>1350</ele>
        <time>2010-01-01T00:24:11Z</time>
      </trkpt>
      <trkpt lat="45.00106" lon="5.51684">
        <ele>1350</ele>
        <time>2010-01-01T00:24:15Z</time>
      </trkpt>
      <trkpt lat="45.00098" lon="5.51686">
        <ele>1350</ele>
        <time>2010-01-01T00:24:18Z</time>
      </trkpt>
      <trkpt lat="45.0009" lon="5.51692">
        <ele>1351</ele>
        <time>2010-01-01T00:24:21Z</time>
      </trkpt>
      <trkpt lat="45.00083" lon="5.51697">
        <ele>1356</ele>
        <time>2010-01-01T00:24:25Z</time>
      </trkpt>
      <trkpt lat="45.00075" lon="5.51702">
        <ele>1357</ele>
        <time>2010-01-01T00:24:28Z</time>
      </trkpt>
      <trkpt lat="45.00067" lon="5.51706">
        <ele>1357</ele>
        <time>2010-01-01T00:24:31Z</time>
      </trkpt>
      <trkpt lat="45.0006" lon="5.51708">
        <ele>1358</ele>
        <time>2010-01-01T00:24:34Z</time>
      </trkpt>
      <trkpt lat="45.00058" lon="5.51707">
        <ele>1358</ele>
        <time>2010-01-01T00:24:35Z</time>
      </trkpt>
      <trkpt lat="45.00044" lon="5.51709">
        <ele>1359</ele>
        <time>2010-01-01T00:24:41Z</time>
      </trkpt>
      <trkpt lat="45.00036" lon="5.5171">
        <ele>1359</ele>
        <time>2010-01-01T00:24:44Z</time>
      </trkpt>
      <trkpt lat="45.00029" lon="5.51716">
        <ele>1360</ele>
        <time>2010-01-01T00:24:47Z</time>
      </trkpt>
      <trkpt lat="45.00022" lon="5.51721">
        <ele>1361</ele>
        <time>2010-01-01T00:24:50Z</time>
      </trkpt>
      <trkpt lat="45.00014" lon="5.51723">
        <ele>1362</ele>
        <time>2010-01-01T00:24:54Z</time>
      </trkpt>
      <trkpt lat="45.00006" lon="5.51722">
        <ele>1362</ele>
        <time>2010-01-01T00:24:57Z</time>
      </trkpt>
      <trkpt lat="44.99994" lon="5.5172">
        <ele>1368</ele>
        <time>2010-01-01T00:25:02Z</time>
      </trkpt>
      <trkpt lat="44.99986" lon="5.51718">
        <ele>1368</ele>
        <time>2010-01-01T00:25:05Z</time>
      </trkpt>
      <trkpt lat="44.99985" lon="5.51719">
        <ele>1368</ele>
        <time>2010-01-01T00:25:06Z</time>
      </trkpt>
      <trkpt lat="44.9997" lon="5.51731">
        <ele>1370</ele>
        <time>2010-01-01T00:25:13Z</time>
      </trkpt>
      <trkpt lat="44.99963" lon="5.51746">
        <ele>1371</ele>
        <time>2010-01-01T00:25:18Z</time>
      </trkpt>
      <trkpt lat="44.9996" lon="5.51757">
        <ele>1380</ele>
        <time>2010-01-01T00:25:21Z</time>
      </trkpt>
      <trkpt lat="44.99954" lon="5.5177">
        <ele>1381</ele>
        <time>2010-01-01T00:25:25Z</time>
      </trkpt>
      <trkpt lat="44.99948" lon="5.51781">
        <ele>1382</ele>
        <time>2010-01-01T00:25:29Z</time>
      </trkpt>
      <trkpt lat="44.99942" lon="5.51796">
        <ele>1384</ele>
        <time>2010-01-01T00:25:34Z</time>
      </trkpt>
      <trkpt lat="44.99943" lon="5.51797">
        <ele>1384</ele>
        <time>2010-01-01T00:25:34Z</time>
      </trkpt>
      <trkpt lat="44.9994" lon="5.5182">
        <ele>1386</ele>
        <time>2010-01-01T00:25:41Z</time>
      </trkpt>
      <trkpt lat="44.99944" lon="5.51831">
        <ele>1387</ele>
        <time>2010-01-01T00:25:44Z</time>
      </trkpt>
      <trkpt lat="44.99943" lon="5.51843">
        <ele>1396</ele>
        <time>2010-01-01T00:25:48Z</time>
      </trkpt>
      <trkpt lat="44.99944" lon="5.51854">
        <ele>1397</ele>
        <time>2010-01-01T00:25:51Z</time>
      </trkpt>
      <trkpt lat="44.99942" lon="5.51865">
        <ele>1398</ele>
        <time>2010-01-01T00:25:54Z</time>
      </trkpt>
      <trkpt lat="44.99937" lon="5.51875">
        <ele>1400</ele>
        <time>2010-01-01T00:25:58Z</time>
      </trkpt>
      <trkpt lat="44.99936" lon="5.51876">
        <ele>1400</ele>
        <time>2010-01-01T00:25:58Z</time>
      </trkpt>
      <trkpt lat="44.99926" lon="5.51899">
        <ele>1404</ele>
        <time>2010-01-01T00:26:06Z</time>
      </trkpt>
      <trkpt lat="44.9992" lon="5.51909">
        <ele>1408</ele>
        <time>2010-01-01T00:26:10Z</time>
      </trkpt>
      <trkpt lat="44.99909" lon="5.51911">
        <ele>1410</ele>
        <time>2010-01-01T00:26:14Z</time>
      </trkpt>
      <trkpt lat="44.99901" lon="5.51918">
        <ele>1417</ele>
        <time>2010-01-01T00:26:18Z</time>
      </trkpt>
      <trkpt lat="44.99895" lon="5.51926">
        <ele>1419</ele>
        <time>2010-01-01T00:26:21Z</time>
      </trkpt>
      <trkpt lat="44.99894" lon="5.51927">
        <ele>1419</ele>
        <time>2010-01-01T00:26:22Z</time>
      </trkpt>
      <trkpt lat="44.99884" lon="5.51951">
        <ele>1422</ele>
        <time>2010-01-01T00:26:30Z</time>
      </trkpt>
      <trkpt lat="44.9988" lon="5.51963">
        <ele>1423</ele>
        <time>2010-01-01T00:26:33Z</time>
      </trkpt>
      <trkpt lat="44.99873" lon="5.5197">
        <ele>1424</ele>
        <time>2010-01-01T00:26:37Z</time>
      </trkpt>
      <trkpt lat="44.99864" lon="5.51971">
        <ele>1425</ele>
        <time>2010-01-01T00:26:40Z</time>
      </trkpt>
      <trkpt lat="44.99856" lon="5.51974">
        <ele>1426</ele>
        <time>2010-01-01T00:26:44Z</time>
      </trkpt>
      <trkpt lat="44.99851" lon="5.5199">
        <ele>1428</ele>
        <time>2010-01-01T00:26:48Z</time>
      </trkpt>
      <trkpt lat="44.99851" lon="5.51991">
        <ele>1428</ele>
        <time>2010-01-01T00:26:49Z</time>
      </trkpt>
      <trkpt lat="44.99848" lon="5.5202">
        <ele>1436</ele>
        <time>2010-01-01T00:26:57Z</time>
      </trkpt>
      <trkpt lat="44.99845" lon="5.52032">
        <ele>1436</ele>
        <time>2010-01-01T00:27:01Z</time>
      </trkpt>
      <trkpt lat="44.99839" lon="5.52039">
        <ele>1437</ele>
        <time>2010-01-01T00:27:04Z</time>
      </trkpt>
      <trkpt lat="44.99833" lon="5.52048">
        <ele>1444</ele>
        <time>2010-01-01T00:27:07Z</time>
      </trkpt>
      <trkpt lat="44.99826" lon="5.52058">
        <ele>1444</ele>
        <time>2010-01-01T00:27:11Z</time>
      </trkpt>
      <trkpt lat="44.99825" lon="5.52059">
        <ele>1444</ele>
        <time>2010-01-01T00:27:12Z</time>
      </trkpt>
      <trkpt lat="44.99824" lon="5.52087">
        <ele>1447</ele>
        <time>2010-01-01T00:27:20Z</time>
      </trkpt>
      <trkpt lat="44.99818" lon="5.52092">
        <ele>1449</ele>
        <time>2010-01-01T00:27:23Z</time>
      </trkpt>
      <trkpt lat="44.99813" lon="5.52102">
        <ele>1451</ele>
        <time>2010-01-01T00:27:26Z</time>
      </trkpt>
      <trkpt lat="44.99806" lon="5.52107">
        <ele>1452</ele>
        <time>2010-01-01T00:27:29Z</time>
      </trkpt>
      <trkpt lat="44.99798" lon="5.52111">
        <ele>1453</ele>
        <time>2010-01-01T00:27:33Z</time>
      </trkpt>
      <trkpt lat="44.9979" lon="5.52115">
        <ele>1454</ele>
        <time>2010-01-01T00:27:36Z</time>
      </trkpt>
      <trkpt lat="44.99789" lon="5.52116">
        <ele>1454</ele>
        <time>2010-01-01T00:27:37Z</time>
      </trkpt>
      <trkpt lat="44.99778" lon="5.52132">
        <ele>1455</ele>
        <time>2010-01-01T00:27:43Z</time>
      </trkpt>
      <trkpt lat="44.99771" lon="5.52141">
        <ele>1456</ele>
        <time>2010-01-01T00:27:47Z</time>
      </trkpt>
      <trkpt lat="44.99765" lon="5.52149">
        <ele>1457</ele>
        <time>2010-01-01T00:27:50Z</time>
      </trkpt>
      <trkpt lat="44.99757" lon="5.52152">
        <ele>1458</ele>
        <time>2010-01-01T00:27:53Z</time>
      </trkpt>
      <trkpt lat="44.99751" lon="5.52161">
        <ele>1460</ele>
        <time>2010-01-01T00:27:57Z</time>
      </trkpt>
      <trkpt lat="44.99745" lon="5.5217">
        <ele>1464</ele>
        <time>2010-01-01T00:28:00Z</time>
      </trkpt>
      <trkpt lat="44.99738" lon="5.52176">
        <ele>1468</ele>
        <time>2010-01-01T00:28:03Z</time>
      </trkpt>
      <trkpt lat="44.99738" lon="5.52176">
        <ele>1468</ele>
        <time>2010-01-01T00:28:04Z</time>
      </trkpt>
      <trkpt lat="44.99724" lon="5.52189">
        <ele>1472</ele>
        <time>2010-01-01T00:28:10Z</time>
      </trkpt>
      <trkpt lat="44.99723" lon="5.52189">
        <ele>1472</ele>
        <time>2010-01-01T00:28:11Z</time>
      </trkpt>
      <trkpt lat="44.99706" lon="5.52187">
        <ele>1474</ele>
        <time>2010-01-01T00:28:17Z</time>
      </trkpt>
      <trkpt lat="44.99698" lon="5.52188">
        <ele>1475</ele>
        <time>2010-01-01T00:28:21Z</time>
      </trkpt>
      <trkpt lat="44.99689" lon="5.52189">
        <ele>1476</ele>
        <time>2010-01-01T00:28:24Z</time>
      </trkpt>
      <trkpt lat="44.99683" lon="5.52196">
        <ele>1477</ele>
        <time>2010-01-01T00:28:27Z</time>
      </trkpt>
      <trkpt lat="44.99676" lon="5.52202">
        <ele>1478</ele>
        <time>2010-01-01T00:28:31Z</time>
      </trkpt>
      <trkpt lat="44.99675" lon="5.52203">
        <ele>1478</ele>
        <time>2010-01-01T00:28:31Z</time>
      </trkpt>
      <trkpt lat="44.99665" lon="5.52217">
        <ele>1491</ele>
        <time>2010-01-01T00:28:37Z</time>
      </trkpt>
      <trkpt lat="44.99663" lon="5.52229">
        <ele>1491</ele>
        <time>2010-01-01T00:28:40Z</time>
      </trkpt>
      <trkpt lat="44.99659" lon="5.52238">
        <ele>1491</ele>
        <time>2010-01-01T00:28:43Z</time>
      </trkpt>
      <trkpt lat="44.99654" lon="5.52249">
        <ele>1491</ele>
        <time>2010-01-01T00:28:47Z</time>
      </trkpt>
      <trkpt lat="44.9965" lon="5.5226">
        <ele>1498</ele>
        <time>2010-01-01T00:28:50Z</time>
      </trkpt>
      <trkpt lat="44.99649" lon="5.5226">
        <ele>1498</ele>
        <time>2010-01-01T00:28:51Z</time>
      </trkpt>
      <trkpt lat="44.99637" lon="5.52275">
        <ele>1503</ele>
        <time>2010-01-01T00:28:57Z</time>
      </trkpt>
      <trkpt lat="44.99631" lon="5.52282">
        <ele>1504</ele>
        <time>2010-01-01T00:29:00Z</time>
      </trkpt>
      <trkpt lat="44.99624" lon="5.52289">
        <ele>1506</ele>
        <time>2010-01-01T00:29:04Z</time>
      </trkpt>
      <trkpt lat="44.99616" lon="5.52299">
        <ele>1507</ele>
        <time>2010-01-01T00:29:08Z</time>
      </trkpt>
      <trkpt lat="44.99608" lon="5.52302">
        <ele>1509</ele>
        <time>2010-01-01T00:29:11Z</time>
      </trkpt>
      <trkpt lat="44.996" lon="5.52309">
        <ele>1510</ele>
        <time>2010-01-01T00:29:15Z</time>
      </trkpt>
      <trkpt lat="44.996" lon="5.52309">
        <ele>1511</ele>
        <time>2010-01-01T00:29:15Z</time>
      </trkpt>
      <trkpt lat="44.99586" lon="5.5232">
        <ele>1515</ele>
        <time>2010-01-01T00:29:21Z</time>
      </trkpt>
      <trkpt lat="44.99578" lon="5.52324">
        <ele>1521</ele>
        <time>2010-01-01T00:29:25Z</time>
      </trkpt>
      <trkpt lat="44.9957" lon="5.5233">
        <ele>1522</ele>
        <time>2010-01-01T00:29:28Z</time>
      </trkpt>
      <trkpt lat="44.99562" lon="5.52332">
        <ele>1522</ele>
        <time>2010-01-01T00:29:32Z</time>
      </trkpt>
      <trkpt lat="44.99553" lon="5.52336">
        <ele>1527</ele>
        <time>2010-01-01T00:29:35Z</time>
      </trkpt>
      <trkpt lat="44.99544" lon="5.52343">
        <ele>1528</ele>
        <time>2010-01-01T00:29:39Z</time>
      </trkpt>
      <trkpt lat="44.99544" lon="5.52343">
        <ele>1528</ele>
        <time>2010-01-01T00:29:40Z</time>
      </trkpt>
      <trkpt lat="44.99529" lon="5.52353">
        <ele>1530</ele>
        <time>2010-01-01T00:29:46Z</time>
      </trkpt>
      <trkpt lat="44.99521" lon="5.52358">
        <ele>1530</ele>
        <time>2010-01-01T00:29:50Z</time>
      </trkpt>
      <trkpt lat="44.99514" lon="5.52362">
        <ele>1531</ele>
        <time>2010-01-01T00:29:53Z</time>
      </trkpt>
      <trkpt lat="44.99507" lon="5.52367">
        <ele>1531</ele>
        <time>2010-01-01T00:29:56Z</time>
      </trkpt>
      <trkpt lat="44.99499" lon="5.5237">
        <ele>1538</ele>
        <time>2010-01-01T00:29:59Z</time>
      </trkpt>
      <trkpt lat="44.99492" lon="5.52374">
        <ele>1538</ele>
        <time>2010-01-01T00:30:02Z</time>
      </trkpt>
      <trkpt lat="44.99484" lon="5.52377">
        <ele>1539</ele>
        <time>2010-01-01T00:30:06Z</time>
      </trkpt>
      <trkpt lat="44.99482" lon="5.52377">
        <ele>1539</ele>
        <time>2010-01-01T00:30:06Z</time>
      </trkpt>
      <trkpt lat="44.99466" lon="5.52378">
        <ele>1540</ele>
        <time>2010-01-01T00:30:12Z</time>
      </trkpt>
      <trkpt lat="44.99458" lon="5.52377">
        <ele>1540</ele>
        <time>2010-01-01T00:30:16Z</time>
      </trkpt>
      <trkpt lat="44.9945" lon="5.52378">
        <ele>1541</ele>
        <time>2010-01-01T00:30:19Z</time>
      </trkpt>
      <trkpt lat="44.99442" lon="5.52382">
        <ele>1541</ele>
        <time>2010-01-01T00:30:22Z</time>
      </trkpt>
      <trkpt lat="44.99433" lon="5.52387">
        <ele>1542</ele>
        <time>2010-01-01T00:30:26Z</time>
      </trkpt>
      <trkpt lat="44.99429" lon="5.52398">
        <ele>1544</ele>
        <time>2010-01-01T00:30:30Z</time>
      </trkpt>
      <trkpt lat="44.99425" lon="5.52409">
        <ele>1546</ele>
        <time>2010-01-01T00:30:33Z</time>
      </trkpt>
      <trkpt lat="44.99424" lon="5.52411">
        <ele>1546</ele>
        <time>2010-01-01T00:30:34Z</time>
      </trkpt>
      <trkpt lat="44.99413" lon="5.52431">
        <ele>1556</ele>
        <time>2010-01-01T00:30:41Z</time>
      </trkpt>
      <trkpt lat="44.99408" lon="5.52445">
        <ele>1559</ele>
        <time>2010-01-01T00:30:46Z</time>
      </trkpt>
      <trkpt lat="44.99402" lon="5.52455">
        <ele>1562</ele>
        <time>2010-01-01T00:30:49Z</time>
      </trkpt>
      <trkpt lat="44.99394" lon="5.5246">
        <ele>1563</ele>
        <time>2010-01-01T00:30:53Z</time>
      </trkpt>
      <trkpt lat="44.99393" lon="5.5246">
        <ele>1563</ele>
        <time>2010-01-01T00:30:53Z</time>
      </trkpt>
      <trkpt lat="44.99377" lon="5.52463">
        <ele>1564</ele>
        <time>2010-01-01T00:31:00Z</time>
      </trkpt>
      <trkpt lat="44.99368" lon="5.52465">
        <ele>1565</ele>
        <time>2010-01-01T00:31:03Z</time>
      </trkpt>
      <trkpt lat="44.9936" lon="5.52468">
        <ele>1566</ele>
        <time>2010-01-01T00:31:07Z</time>
      </trkpt>
      <trkpt lat="44.99351" lon="5.52467">
        <ele>1567</ele>
        <time>2010-01-01T00:31:10Z</time>
      </trkpt>
      <trkpt lat="44.99343" lon="5.52469">
        <ele>1568</ele>
        <time>2010-01-01T00:31:14Z</time>
      </trkpt>
      <trkpt lat="44.99334" lon="5.52473">
        <ele>1569</ele>
        <time>2010-01-01T00:31:17Z</time>
      </trkpt>
      <trkpt lat="44.99329" lon="5.52481">
        <ele>1577</ele>
        <time>2010-01-01T00:31:20Z</time>
      </trkpt>
      <trkpt lat="44.99327" lon="5.52482">
        <ele>1577</ele>
        <time>2010-01-01T00:31:21Z</time>
      </trkpt>
      <trkpt lat="44.99314" lon="5.52489">
        <ele>1577</ele>
        <time>2010-01-01T00:31:27Z</time>
      </trkpt>
      <trkpt lat="44.99305" lon="5.5249">
        <ele>1578</ele>
        <time>2010-01-01T00:31:30Z</time>
      </trkpt>
      <trkpt lat="44.99297" lon="5.52494">
        <ele>1579</ele>
        <time>2010-01-01T00:31:34Z</time>
      </trkpt>
      <trkpt lat="44.99292" lon="5.52505">
        <ele>1588</ele>
        <time>2010-01-01T00:31:37Z</time>
      </trkpt>
      <trkpt lat="44.99284" lon="5.52509">
        <ele>1589</ele>
        <time>2010-01-01T00:31:41Z</time>
      </trkpt>
      <trkpt lat="44.99283" lon="5.52509">
        <ele>1589</ele>
        <time>2010-01-01T00:31:41Z</time>
      </trkpt>
      <trkpt lat="44.99269" lon="5.52518">
        <ele>1590</ele>
        <time>2010-01-01T00:31:47Z</time>
      </trkpt>
      <trkpt lat="44.99262" lon="5.52525">
        <ele>1591</ele>
        <time>2010-01-01T00:31:51Z</time>
      </trkpt>
      <trkpt lat="44.99256" lon="5.52534">
        <ele>1592</ele>
        <time>2010-01-01T00:31:54Z</time>
      </trkpt>
      <trkpt lat="44.99249" lon="5.52541">
        <ele>1603</ele>
        <time>2010-01-01T00:31:58Z</time>
      </trkpt>
      <trkpt lat="44.99241" lon="5.52546">
        <ele>1604</ele>
        <time>2010-01-01T00:32:01Z</time>
      </trkpt>
      <trkpt lat="44.99237" lon="5.52557">
        <ele>1605</ele>
        <time>2010-01-01T00:32:05Z</time>
      </trkpt>
      <trkpt lat="44.99237" lon="5.52558">
        <ele>1605</ele>
        <time>2010-01-01T00:32:05Z</time>
      </trkpt>
      <trkpt lat="44.99237" lon="5.52585">
        <ele>1611</ele>
        <time>2010-01-01T00:32:13Z</time>
      </trkpt>
      <trkpt lat="44.99229" lon="5.52591">
        <ele>1614</ele>
        <time>2010-01-01T00:32:16Z</time>
      </trkpt>
      <trkpt lat="44.99222" lon="5.52597">
        <ele>1617</ele>
        <time>2010-01-01T00:32:20Z</time>
      </trkpt>
      <trkpt lat="44.9922" lon="5.52608">
        <ele>1619</ele>
        <time>2010-01-01T00:32:23Z</time>
      </trkpt>
      <trkpt lat="44.99213" lon="5.52615">
        <ele>1620</ele>
        <time>2010-01-01T00:32:26Z</time>
      </trkpt>
      <trkpt lat="44.99212" lon="5.52616">
        <ele>1620</ele>
        <time>2010-01-01T00:32:27Z</time>
      </trkpt>
      <trkpt lat="44.992" lon="5.5263">
        <ele>1623</ele>
        <time>2010-01-01T00:32:33Z</time>
      </trkpt>
      <trkpt lat="44.99196" lon="5.52641">
        <ele>1625</ele>
        <time>2010-01-01T00:32:37Z</time>
      </trkpt>
      <trkpt lat="44.99193" lon="5.52652">
        <ele>1626</ele>
        <time>2010-01-01T00:32:40Z</time>
      </trkpt>
      <trkpt lat="44.99186" lon="5.52664">
        <ele>1629</ele>
        <time>2010-01-01T00:32:44Z</time>
      </trkpt>
      <trkpt lat="44.99185" lon="5.52665">
        <ele>1629</ele>
        <time>2010-01-01T00:32:45Z</time>
      </trkpt>
      <trkpt lat="44.99177" lon="5.5269">
        <ele>1641</ele>
        <time>2010-01-01T00:32:53Z</time>
      </trkpt>
      <trkpt lat="44.99168" lon="5.52696">
        <ele>1642</ele>
        <time>2010-01-01T00:32:56Z</time>
      </trkpt>
      <trkpt lat="44.99161" lon="5.52703">
        <ele>1648</ele>
        <time>2010-01-01T00:33:00Z</time>
      </trkpt>
      <trkpt lat="44.99159" lon="5.52715">
        <ele>1650</ele>
        <time>2010-01-01T00:33:03Z</time>
      </trkpt>
      <trkpt lat="44.99156" lon="5.52727">
        <ele>1652</ele>
        <time>2010-01-01T00:33:07Z</time>
      </trkpt>
      <trkpt lat="44.99156" lon="5.52727">
        <ele>1652</ele>
        <time>2010-01-01T00:33:07Z</time>
      </trkpt>
      <trkpt lat="44.99141" lon="5.52738">
        <ele>1653</ele>
        <time>2010-01-01T00:33:14Z</time>
      </trkpt>
      <trkpt lat="44.99133" lon="5.52743">
        <ele>1653</ele>
        <time>2010-01-01T00:33:17Z</time>
      </trkpt>
      <trkpt lat="44.99132" lon="5.52742">
        <ele>1653</ele>
        <time>2010-01-01T00:33:18Z</time>
      </trkpt>
      <trkpt lat="44.99118" lon="5.5275">
        <ele>1666</ele>
        <time>2010-01-01T00:33:24Z</time>
      </trkpt>
      <trkpt lat="44.99112" lon="5.52759">
        <ele>1666</ele>
        <time>2010-01-01T00:33:27Z</time>
      </trkpt>
      <trkpt lat="44.99106" lon="5.52767">
        <ele>1667</ele>
        <time>2010-01-01T00:33:30Z</time>
      </trkpt>
      <trkpt lat="44.99099" lon="5.52771">
        <ele>1667</ele>
        <time>2010-01-01T00:33:34Z</time>
      </trkpt>
      <trkpt lat="44.9909" lon="5.52774">
        <ele>1667</ele>
        <time>2010-01-01T00:33:37Z</time>
      </trkpt>
      <trkpt lat="44.99082" lon="5.52772">
        <ele>1671</ele>
        <time>2010-01-01T00:33:41Z</time>
      </trkpt>
      <trkpt lat="44.99073" lon="5.52772">
        <ele>1671</ele>
        <time>2010-01-01T00:33:44Z</time>
      </trkpt>
      <trkpt lat="44.99072" lon="5.52773">
        <ele>1672</ele>
        <time>2010-01-01T00:33:44Z</time>
      </trkpt>
      <trkpt lat="44.99059" lon="5.52783">
        <ele>1676</ele>
        <time>2010-01-01T00:33:51Z</time>
      </trkpt>
      <trkpt lat="44.99051" lon="5.52788">
        <ele>1677</ele>
        <time>2010-01-01T00:33:54Z</time>
      </trkpt>
      <trkpt lat="44.99043" lon="5.5279">
        <ele>1678</ele>
        <time>2010-01-01T00:33:57Z</time>
      </trkpt>
      <trkpt lat="44.99034" lon="5.52794">
        <ele>1680</ele>
        <time>2010-01-01T00:34:01Z</time>
      </trkpt>
      <trkpt lat="44.99028" lon="5.52802">
        <ele>1681</ele>
        <time>2010-01-01T00:34:04Z</time>
      </trkpt>
      <trkpt lat="44.99027" lon="5.52802">
        <ele>1681</ele>
        <time>2010-01-01T00:34:05Z</time>
      </trkpt>
      <trkpt lat="44.99012" lon="5.52808">
        <ele>1684</ele>
        <time>2010-01-01T00:34:11Z</time>
      </trkpt>
      <trkpt lat="44.99004" lon="5.52813">
        <ele>1686</ele>
        <time>2010-01-01T00:34:15Z</time>
      </trkpt>
      <trkpt lat="44.98995" lon="5.52814">
        <ele>1693</ele>
        <time>2010-01-01T00:34:18Z</time>
      </trkpt>
      <trkpt lat="44.98987" lon="5.52814">
        <ele>1693</ele>
        <time>2010-01-01T00:34:21Z</time>
      </trkpt>
      <trkpt lat="44.98986" lon="5.52815">
        <ele>1693</ele>
        <time>2010-01-01T00:34:22Z</time>
      </trkpt>
      <trkpt lat="44.98973" lon="5.52826">
        <ele>1694</ele>
        <time>2010-01-01T00:34:28Z</time>
      </trkpt>
      <trkpt lat="44.98969" lon="5.52837">
        <ele>1706</ele>
        <time>2010-01-01T00:34:31Z</time>
      </trkpt>
      <trkpt lat="44.98961" lon="5.52844">
        <ele>1708</ele>
        <time>2010-01-01T00:34:35Z</time>
      </trkpt>
      <trkpt lat="44.98956" lon="5.52854">
        <ele>1709</ele>
        <time>2010-01-01T00:34:38Z</time>
      </trkpt>
      <trkpt lat="44.98952" lon="5.52865">
        <ele>1711</ele>
        <time>2010-01-01T00:34:42Z</time>
      </trkpt>
      <trkpt lat="44.98947" lon="5.52875">
        <ele>1712</ele>
        <time>2010-01-01T00:34:45Z</time>
      </trkpt>
      <trkpt lat="44.98947" lon="5.52876">
        <ele>1712</ele>
        <time>2010-01-01T00:34:46Z</time>
      </trkpt>
      <trkpt lat="44.9894" lon="5.52897">
        <ele>1716</ele>
        <time>2010-01-01T00:34:52Z</time>
      </trkpt>
      <trkpt lat="44.98936" lon="5.52908">
        <ele>1718</ele>
        <time>2010-01-01T00:34:56Z</time>
      </trkpt>
      <trkpt lat="44.98934" lon="5.5292">
        <ele>1732</ele>
        <time>2010-01-01T00:34:59Z</time>
      </trkpt>
      <trkpt lat="44.98928" lon="5.52929">
        <ele>1732</ele>
        <time>2010-01-01T00:35:03Z</time>
      </trkpt>
      <trkpt lat="44.98927" lon="5.52929">
        <ele>1732</ele>
        <time>2010-01-01T00:35:03Z</time>
      </trkpt>
      <trkpt lat="44.98916" lon="5.52947">
        <ele>1741</ele>
        <time>2010-01-01T00:35:10Z</time>
      </trkpt>
      <trkpt lat="44.98912" lon="5.52957">
        <ele>1745</ele>
        <time>2010-01-01T00:35:13Z</time>
      </trkpt>
      <trkpt lat="44.98904" lon="5.52963">
        <ele>1747</ele>
        <time>2010-01-01T00:35:16Z</time>
      </trkpt>
      <trkpt lat="44.98904" lon="5.52964">
        <ele>1747</ele>
        <time>2010-01-01T00:35:17Z</time>
      </trkpt>
      <trkpt lat="44.98904" lon="5.52987">
        <ele>1752</ele>
        <time>2010-01-01T00:35:23Z</time>
      </trkpt>
      <trkpt lat="44.98904" lon="5.52988">
        <ele>1752</ele>
        <time>2010-01-01T00:35:24Z</time>
      </trkpt>
      <trkpt lat="44.98893" lon="5.53005">
        <ele>1769</ele>
        <time>2010-01-01T00:35:30Z</time>
      </trkpt>
      <trkpt lat="44.98885" lon="5.53008">
        <ele>1770</ele>
        <time>2010-01-01T00:35:34Z</time>
      </trkpt>
      <trkpt lat="44.98884" lon="5.53008">
        <ele>1771</ele>
        <time>2010-01-01T00:35:34Z</time>
      </trkpt>
      <trkpt lat="44.98869" lon="5.53017">
        <ele>1773</ele>
        <time>2010-01-01T00:35:40Z</time>
      </trkpt>
      <trkpt lat="44.98862" lon="5.53024">
        <ele>1774</ele>
        <time>2010-01-01T00:35:44Z</time>
      </trkpt>
      <trkpt lat="44.98861" lon="5.53024">
        <ele>1774</ele>
        <time>2010-01-01T00:35:44Z</time>
      </trkpt>
      <trkpt lat="44.98852" lon="5.53044">
        <ele>1778</ele>
        <time>2010-01-01T00:35:51Z</time>
      </trkpt>
      <trkpt lat="44.98847" lon="5.53053">
        <ele>1781</ele>
        <time>2010-01-01T00:35:54Z</time>
      </trkpt>
      <trkpt lat="44.98842" lon="5.53064">
        <ele>1784</ele>
        <time>2010-01-01T00:35:58Z</time>
      </trkpt>
      <trkpt lat="44.98842" lon="5.53064">
        <ele>1785</ele>
        <time>2010-01-01T00:35:58Z</time>
      </trkpt>
      <trkpt lat="44.98838" lon="5.53075">
        <ele>1789</ele>
        <time>2010-01-01T00:36:01Z</time>
      </trkpt>
      <trkpt lat="44.98827" lon="5.53093">
        <ele>1805</ele>
        <time>2010-01-01T00:36:08Z</time>
      </trkpt>
      <trkpt lat="44.98821" lon="5.531">
        <ele>1811</ele>
        <time>2010-01-01T00:36:11Z</time>
      </trkpt>
      <trkpt lat="44.98814" lon="5.53105">
        <ele>1815</ele>
        <time>2010-01-01T00:36:15Z</time>
      </trkpt>
      <trkpt lat="44.98805" lon="5.5311">
        <ele>1818</ele>
        <time>2010-01-01T00:36:18Z</time>
      </trkpt>
      <trkpt lat="44.98805" lon="5.5311">
        <ele>1818</ele>
        <time>2010-01-01T00:36:18Z</time>
      </trkpt>
      <trkpt lat="44.98789" lon="5.53116">
        <ele>1821</ele>
        <time>2010-01-01T00:36:25Z</time>
      </trkpt>
      <trkpt lat="44.9878" lon="5.53119">
        <ele>1823</ele>
        <time>2010-01-01T00:36:28Z</time>
      </trkpt>
      <trkpt lat="44.98773" lon="5.53126">
        <ele>1825</ele>
        <time>2010-01-01T00:36:32Z</time>
      </trkpt>
      <trkpt lat="44.98772" lon="5.53127">
        <ele>1825</ele>
        <time>2010-01-01T00:36:32Z</time>
      </trkpt>
      <trkpt lat="44.98757" lon="5.53134">
        <ele>1829</ele>
        <time>2010-01-01T00:36:39Z</time>
      </trkpt>
      <trkpt lat="44.98749" lon="5.53137">
        <ele>1839</ele>
        <time>2010-01-01T00:36:42Z</time>
      </trkpt>
      <trkpt lat="44.9874" lon="5.53137">
        <ele>1839</ele>
        <time>2010-01-01T00:36:46Z</time>
      </trkpt>
      <trkpt lat="44.98739" lon="5.53136">
        <ele>1839</ele>
        <time>2010-01-01T00:36:46Z</time>
      </trkpt>
      <trkpt lat="44.98726" lon="5.53148">
        <ele>1842</ele>
        <time>2010-01-01T00:36:52Z</time>
      </trkpt>
      <trkpt lat="44.98718" lon="5.53153">
        <ele>1842</ele>
        <time>2010-01-01T00:36:56Z</time>
      </trkpt>
      <trkpt lat="44.9871" lon="5.53157">
        <ele>1843</ele>
        <time>2010-01-01T00:36:59Z</time>
      </trkpt>
      <trkpt lat="44.98701" lon="5.53155">
        <ele>1844</ele>
        <time>2010-01-01T00:37:03Z</time>
      </trkpt>
      <trkpt lat="44.98701" lon="5.53155">
        <ele>1844</ele>
        <time>2010-01-01T00:37:03Z</time>
      </trkpt>
      <trkpt lat="44.987" lon="5.53176">
        <ele>1866</ele>
        <time>2010-01-01T00:37:09Z</time>
      </trkpt>
      <trkpt lat="44.98704" lon="5.53187">
        <ele>1867</ele>
        <time>2010-01-01T00:37:12Z</time>
      </trkpt>
      <trkpt lat="44.98701" lon="5.53198">
        <ele>1869</ele>
        <time>2010-01-01T00:37:16Z</time>
      </trkpt>
      <trkpt lat="44.98701" lon="5.53199">
        <ele>1869</ele>
        <time>2010-01-01T00:37:16Z</time>
      </trkpt>
      <trkpt lat="44.98688" lon="5.53214">
        <ele>1873</ele>
        <time>2010-01-01T00:37:23Z</time>
      </trkpt>
      <trkpt lat="44.98681" lon="5.53221">
        <ele>1876</ele>
        <time>2010-01-01T00:37:26Z</time>
      </trkpt>
      <trkpt lat="44.98673" lon="5.53223">
        <ele>1877</ele>
        <time>2010-01-01T00:37:29Z</time>
      </trkpt>
      <trkpt lat="44.98664" lon="5.53225">
        <ele>1886</ele>
        <time>2010-01-01T00:37:33Z</time>
      </trkpt>
      <trkpt lat="44.98657" lon="5.53231">
        <ele>1888</ele>
        <time>2010-01-01T00:37:36Z</time>
      </trkpt>
      <trkpt lat="44.98656" lon="5.53232">
        <ele>1888</ele>
        <time>2010-01-01T00:37:37Z</time>
      </trkpt>
      <trkpt lat="44.9865" lon="5.53248">
        <ele>1890</ele>
        <time>2010-01-01T00:37:42Z</time>
      </trkpt>
      <trkpt lat="44.98651" lon="5.53249">
        <ele>1890</ele>
        <time>2010-01-01T00:37:42Z</time>
      </trkpt>
      <trkpt lat="44.98661" lon="5.53267">
        <ele>1905</ele>
        <time>2010-01-01T00:37:48Z</time>
      </trkpt>
      <trkpt lat="44.98661" lon="5.53279">
        <ele>1910</ele>
        <time>2010-01-01T00:37:52Z</time>
      </trkpt>
      <trkpt lat="44.98666" lon="5.53289">
        <ele>1913</ele>
        <time>2010-01-01T00:37:56Z</time>
      </trkpt>
      <trkpt lat="44.98673" lon="5.53297">
        <ele>1909</ele>
        <time>2010-01-01T00:37:59Z</time>
      </trkpt>
      <trkpt lat="44.98673" lon="5.53298">
        <ele>1909</ele>
        <time>2010-01-01T00:37:59Z</time>
      </trkpt>
      <trkpt lat="44.98679" lon="5.53319">
        <ele>1915</ele>
        <time>2010-01-01T00:38:06Z</time>
      </trkpt>
      <trkpt lat="44.98684" lon="5.5333">
        <ele>1917</ele>
        <time>2010-01-01T00:38:09Z</time>
      </trkpt>
      <trkpt lat="44.98688" lon="5.5334">
        <ele>1935</ele>
        <time>2010-01-01T00:38:13Z</time>
      </trkpt>
      <trkpt lat="44.98681" lon="5.53346">
        <ele>1935</ele>
        <time>2010-01-01T00:38:16Z</time>
      </trkpt>
      <trkpt lat="44.98674" lon="5.53353">
        <ele>1937</ele>
        <time>2010-01-01T00:38:19Z</time>
      </trkpt>
      <trkpt lat="44.98673" lon="5.53353">
        <ele>1937</ele>
        <time>2010-01-01T00:38:20Z</time>
      </trkpt>
      <trkpt lat="44.98658" lon="5.53361">
        <ele>1944</ele>
        <time>2010-01-01T00:38:26Z</time>
      </trkpt>
      <trkpt lat="44.9865" lon="5.53364">
        <ele>1946</ele>
        <time>2010-01-01T00:38:30Z</time>
      </trkpt>
      <trkpt lat="44.98641" lon="5.53366">
        <ele>1947</ele>
        <time>2010-01-01T00:38:33Z</time>
      </trkpt>
      <trkpt lat="44.98633" lon="5.53371">
        <ele>1949</ele>
        <time>2010-01-01T00:38:36Z</time>
      </trkpt>
      <trkpt lat="44.98632" lon="5.53371">
        <ele>1949</ele>
        <time>2010-01-01T00:38:37Z</time>
      </trkpt>
      <trkpt lat="44.98618" lon="5.5338">
        <ele>1952</ele>
        <time>2010-01-01T00:38:43Z</time>
      </trkpt>
      <trkpt lat="44.9861" lon="5.53387">
        <ele>1954</ele>
        <time>2010-01-01T00:38:47Z</time>
      </trkpt>
      <trkpt lat="44.98602" lon="5.53391">
        <ele>1956</ele>
        <time>2010-01-01T00:38:50Z</time>
      </trkpt>
      <trkpt lat="44.98594" lon="5.53396">
        <ele>1958</ele>
        <time>2010-01-01T00:38:54Z</time>
      </trkpt>
      <trkpt lat="44.98594" lon="5.53397">
        <ele>1959</ele>
        <time>2010-01-01T00:38:54Z</time>
      </trkpt>
      <trkpt lat="44.98606" lon="5.53413">
        <ele>1960</ele>
        <time>2010-01-01T00:39:01Z</time>
      </trkpt>
      <trkpt lat="44.98613" lon="5.53421">
        <ele>1978</ele>
        <time>2010-01-01T00:39:04Z</time>
      </trkpt>
      <trkpt lat="44.9862" lon="5.53429">
        <ele>1979</ele>
        <time>2010-01-01T00:39:08Z</time>
      </trkpt>
      <trkpt lat="44.98627" lon="5.53436">
        <ele>1979</ele>
        <time>2010-01-01T00:39:11Z</time>
      </trkpt>
      <trkpt lat="44.98628" lon="5.53437">
        <ele>1980</ele>
        <time>2010-01-01T00:39:12Z</time>
      </trkpt>
      <trkpt lat="44.98639" lon="5.53454">
        <ele>1983</ele>
        <time>2010-01-01T00:39:18Z</time>
      </trkpt>
      <trkpt lat="44.98645" lon="5.53463">
        <ele>1985</ele>
        <time>2010-01-01T00:39:22Z</time>
      </trkpt>
      <trkpt lat="44.98649" lon="5.53474">
        <ele>1988</ele>
        <time>2010-01-01T00:39:25Z</time>
      </trkpt>
      <trkpt lat="44.98651" lon="5.53486">
        <ele>1992</ele>
        <time>2010-01-01T00:39:29Z</time>
      </trkpt>
      <trkpt lat="44.98652" lon="5.53487">
        <ele>1993</ele>
        <time>2010-01-01T00:39:29Z</time>
      </trkpt>
      <trkpt lat="44.98662" lon="5.53505">
        <ele>2002</ele>
        <time>2010-01-01T00:39:36Z</time>
      </trkpt>
      <trkpt lat="44.98668" lon="5.53514">
        <ele>2004</ele>
        <time>2010-01-01T00:39:39Z</time>
      </trkpt>
      <trkpt lat="44.98671" lon="5.53526">
        <ele>2003</ele>
        <time>2010-01-01T00:39:43Z</time>
      </trkpt>
      <trkpt lat="44.98671" lon="5.53526">
        <ele>2003</ele>
        <time>2010-01-01T00:39:43Z</time>
      </trkpt>
      <trkpt lat="44.9868" lon="5.53546">
        <ele>2002</ele>
        <time>2010-01-01T00:39:50Z</time>
      </trkpt>
      <trkpt lat="44.98687" lon="5.53553">
        <ele>2002</ele>
        <time>2010-01-01T00:39:53Z</time>
      </trkpt>
      <trkpt lat="44.98696" lon="5.53554">
        <ele>2003</ele>
        <time>2010-01-01T00:39:57Z</time>
      </trkpt>
      <trkpt lat="44.98697" lon="5.53554">
        <ele>2003</ele>
        <time>2010-01-01T00:39:57Z</time>
      </trkpt>
      <trkpt lat="44.98712" lon="5.53561">
        <ele>2005</ele>
        <time>2010-01-01T00:40:03Z</time>
      </trkpt>
      <trkpt lat="44.9872" lon="5.53566">
        <ele>2007</ele>
        <time>2010-01-01T00:40:07Z</time>
      </trkpt>
      <trkpt lat="44.98727" lon="5.53572">
        <ele>2009</ele>
        <time>2010-01-01T00:40:10Z</time>
      </trkpt>
      <trkpt lat="44.98734" lon="5.53577">
        <ele>2011</ele>
        <time>2010-01-01T00:40:13Z</time>
      </trkpt>
      <trkpt lat="44.98736" lon="5.53577">
        <ele>2012</ele>
        <time>2010-01-01T00:40:14Z</time>
      </trkpt>
      <trkpt lat="44.9875" lon="5.53586">
        <ele>2019</ele>
        <time>2010-01-01T00:40:20Z</time>
      </trkpt>
      <trkpt lat="44.98758" lon="5.5359">
        <ele>2016</ele>
        <time>2010-01-01T00:40:24Z</time>
      </trkpt>
      <trkpt lat="44.98766" lon="5.5359">
        <ele>2015</ele>
        <time>2010-01-01T00:40:27Z</time>
      </trkpt>
      <trkpt lat="44.98774" lon="5.53595">
        <ele>2013</ele>
        <time>2010-01-01T00:40:30Z</time>
      </trkpt>
      <trkpt lat="44.98783" lon="5.53597">
        <ele>2013</ele>
        <time>2010-01-01T00:40:34Z</time>
      </trkpt>
      <trkpt lat="44.98791" lon="5.53599">
        <ele>2013</ele>
        <time>2010-01-01T00:40:37Z</time>
      </trkpt>
      <trkpt lat="44.988" lon="5.53601">
        <ele>2013</ele>
        <time>2010-01-01T00:40:41Z</time>
      </trkpt>
      <trkpt lat="44.988" lon="5.53602">
        <ele>2013</ele>
        <time>2010-01-01T00:40:41Z</time>
      </trkpt>
      <trkpt lat="44.98816" lon="5.53609">
        <ele>2013</ele>
        <time>2010-01-01T00:40:48Z</time>
      </trkpt>
      <trkpt lat="44.98825" lon="5.53607">
        <ele>2014</ele>
        <time>2010-01-01T00:40:51Z</time>
      </trkpt>
      <trkpt lat="44.98833" lon="5.5361">
        <ele>2014</ele>
        <time>2010-01-01T00:40:55Z</time>
      </trkpt>
      <trkpt lat="44.98841" lon="5.53615">
        <ele>2019</ele>
        <time>2010-01-01T00:40:58Z</time>
      </trkpt>
      <trkpt lat="44.98849" lon="5.53619">
        <ele>2020</ele>
        <time>2010-01-01T00:41:01Z</time>
      </trkpt>
      <trkpt lat="44.98857" lon="5.53623">
        <ele>2020</ele>
        <time>2010-01-01T00:41:05Z</time>
      </trkpt>
      <trkpt lat="44.98858" lon="5.53624">
        <ele>2020</ele>
        <time>2010-01-01T00:41:05Z</time>
      </trkpt>
      <trkpt lat="44.98873" lon="5.5363">
        <ele>2021</ele>
        <time>2010-01-01T00:41:12Z</time>
      </trkpt>
      <trkpt lat="44.9888" lon="5.53637">
        <ele>2022</ele>
        <time>2010-01-01T00:41:15Z</time>
      </trkpt>
      <trkpt lat="44.98888" lon="5.5364">
        <ele>2023</ele>
        <time>2010-01-01T00:41:18Z</time>
      </trkpt>
      <trkpt lat="44.98896" lon="5.53645">
        <ele>2025</ele>
        <time>2010-01-01T00:41:22Z</time>
      </trkpt>
      <trkpt lat="44.98905" lon="5.5365">
        <ele>2027</ele>
        <time>2010-01-01T00:41:26Z</time>
      </trkpt>
      <trkpt lat="44.98911" lon="5.53657">
        <ele>2032</ele>
        <time>2010-01-01T00:41:29Z</time>
      </trkpt>
      <trkpt lat="44.98912" lon="5.53658">
        <ele>2032</ele>
        <time>2010-01-01T00:41:29Z</time>
      </trkpt>
      <trkpt lat="44.98927" lon="5.53663">
        <ele>2029</ele>
        <time>2010-01-01T00:41:36Z</time>
      </trkpt>
      <trkpt lat="44.98934" lon="5.53668">
        <ele>2033</ele>
        <time>2010-01-01T00:41:39Z</time>
      </trkpt>
      <trkpt lat="44.98941" lon="5.53674">
        <ele>2031</ele>
        <time>2010-01-01T00:41:42Z</time>
      </trkpt>
      <trkpt lat="44.98947" lon="5.53683">
        <ele>2029</ele>
        <time>2010-01-01T00:41:45Z</time>
      </trkpt>
      <trkpt lat="44.98951" lon="5.53693">
        <ele>2029</ele>
        <time>2010-01-01T00:41:49Z</time>
      </trkpt>
      <trkpt lat="44.98958" lon="5.53702">
        <ele>2028</ele>
        <time>2010-01-01T00:41:52Z</time>
      </trkpt>
      <trkpt lat="44.98958" lon="5.53703">
        <ele>2028</ele>
        <time>2010-01-01T00:41:53Z</time>
      </trkpt>
      <trkpt lat="44.98955" lon="5.53721">
        <ele>2028</ele>
        <time>2010-01-01T00:41:58Z</time>
      </trkpt>
      <trkpt lat="44.98962" lon="5.53727">
        <ele>2028</ele>
        <time>2010-01-01T00:42:01Z</time>
      </trkpt>
      <trkpt lat="44.9897" lon="5.5373">
        <ele>2029</ele>
        <time>2010-01-01T00:42:05Z</time>
      </trkpt>
      <trkpt lat="44.98977" lon="5.53738">
        <ele>2030</ele>
        <time>2010-01-01T00:42:08Z</time>
      </trkpt>
      <trkpt lat="44.98982" lon="5.53747">
        <ele>2032</ele>
        <time>2010-01-01T00:42:11Z</time>
      </trkpt>
      <trkpt lat="44.98984" lon="5.53748">
        <ele>2032</ele>
        <time>2010-01-01T00:42:12Z</time>
      </trkpt>
      <trkpt lat="44.98996" lon="5.53757">
        <ele>2027</ele>
        <time>2010-01-01T00:42:17Z</time>
      </trkpt>
      <trkpt lat="44.99003" lon="5.53764">
        <ele>2027</ele>
        <time>2010-01-01T00:42:21Z</time>
      </trkpt>
      <trkpt lat="44.99009" lon="5.53772">
        <ele>2023</ele>
        <time>2010-01-01T00:42:24Z</time>
      </trkpt>
      <trkpt lat="44.9901" lon="5.53773">
        <ele>2023</ele>
        <time>2010-01-01T00:42:25Z</time>
      </trkpt>
      <trkpt lat="44.99025" lon="5.53778">
        <ele>2019</ele>
        <time>2010-01-01T00:42:31Z</time>
      </trkpt>
      <trkpt lat="44.99033" lon="5.5378">
        <ele>2018</ele>
        <time>2010-01-01T00:42:34Z</time>
      </trkpt>
      <trkpt lat="44.99041" lon="5.53785">
        <ele>2017</ele>
        <time>2010-01-01T00:42:38Z</time>
      </trkpt>
      <trkpt lat="44.99049" lon="5.53781">
        <ele>2017</ele>
        <time>2010-01-01T00:42:41Z</time>
      </trkpt>
      <trkpt lat="44.99055" lon="5.53771">
        <ele>2017</ele>
        <time>2010-01-01T00:42:45Z</time>
      </trkpt>
      <trkpt lat="44.99056" lon="5.53771">
        <ele>2017</ele>
        <time>2010-01-01T00:42:45Z</time>
      </trkpt>
      <trkpt lat="44.99072" lon="5.53769">
        <ele>2016</ele>
        <time>2010-01-01T00:42:51Z</time>
      </trkpt>
      <trkpt lat="44.99081" lon="5.5377">
        <ele>2015</ele>
        <time>2010-01-01T00:42:55Z</time>
      </trkpt>
      <trkpt lat="44.99088" lon="5.53774">
        <ele>2009</ele>
        <time>2010-01-01T00:42:58Z</time>
      </trkpt>
      <trkpt lat="44.99095" lon="5.5378">
        <ele>2008</ele>
        <time>2010-01-01T00:43:01Z</time>
      </trkpt>
      <trkpt lat="44.99104" lon="5.53783">
        <ele>2008</ele>
        <time>2010-01-01T00:43:05Z</time>
      </trkpt>
      <trkpt lat="44.99111" lon="5.53779">
        <ele>2007</ele>
        <time>2010-01-01T00:43:08Z</time>
      </trkpt>
      <trkpt lat="44.99112" lon="5.53778">
        <ele>2007</ele>
        <time>2010-01-01T00:43:08Z</time>
      </trkpt>
      <trkpt lat="44.99129" lon="5.5378">
        <ele>2005</ele>
        <time>2010-01-01T00:43:15Z</time>
      </trkpt>
      <trkpt lat="44.99137" lon="5.53779">
        <ele>2005</ele>
        <time>2010-01-01T00:43:19Z</time>
      </trkpt>
      <trkpt lat="44.99146" lon="5.53784">
        <ele>2004</ele>
        <time>2010-01-01T00:43:22Z</time>
      </trkpt>
      <trkpt lat="44.99151" lon="5.53793">
        <ele>2004</ele>
        <time>2010-01-01T00:43:26Z</time>
      </trkpt>
      <trkpt lat="44.99152" lon="5.53794">
        <ele>2004</ele>
        <time>2010-01-01T00:43:26Z</time>
      </trkpt>
      <trkpt lat="44.99165" lon="5.53807">
        <ele>2003</ele>
        <time>2010-01-01T00:43:33Z</time>
      </trkpt>
      <trkpt lat="44.99171" lon="5.53814">
        <ele>2001</ele>
        <time>2010-01-01T00:43:36Z</time>
      </trkpt>
      <trkpt lat="44.99174" lon="5.53825">
        <ele>2001</ele>
        <time>2010-01-01T00:43:39Z</time>
      </trkpt>
      <trkpt lat="44.99179" lon="5.53836">
        <ele>2002</ele>
        <time>2010-01-01T00:43:43Z</time>
      </trkpt>
      <trkpt lat="44.99182" lon="5.53846">
        <ele>2002</ele>
        <time>2010-01-01T00:43:46Z</time>
      </trkpt>
      <trkpt lat="44.99184" lon="5.53857">
        <ele>2002</ele>
        <time>2010-01-01T00:43:49Z</time>
      </trkpt>
      <trkpt lat="44.99184" lon="5.53859">
        <ele>2002</ele>
        <time>2010-01-01T00:43:50Z</time>
      </trkpt>
      <trkpt lat="44.99181" lon="5.53878">
        <ele>2000</ele>
        <time>2010-01-01T00:43:55Z</time>
      </trkpt>
      <trkpt lat="44.99178" lon="5.5389">
        <ele>1999</ele>
        <time>2010-01-01T00:43:59Z</time>
      </trkpt>
      <trkpt lat="44.99177" lon="5.53901">
        <ele>1997</ele>
        <time>2010-01-01T00:44:02Z</time>
      </trkpt>
      <trkpt lat="44.99176" lon="5.53913">
        <ele>1995</ele>
        <time>2010-01-01T00:44:05Z</time>
      </trkpt>
      <trkpt lat="44.99177" lon="5.53925">
        <ele>1990</ele>
        <time>2010-01-01T00:44:09Z</time>
      </trkpt>
      <trkpt lat="44.99171" lon="5.53934">
        <ele>1990</ele>
        <time>2010-01-01T00:44:12Z</time>
      </trkpt>
      <trkpt lat="44.99172" lon="5.53946">
        <ele>1989</ele>
        <time>2010-01-01T00:44:16Z</time>
      </trkpt>
      <trkpt lat="44.99176" lon="5.53956">
        <ele>1987</ele>
        <time>2010-01-01T00:44:19Z</time>
      </trkpt>
      <trkpt lat="44.99176" lon="5.53958">
        <ele>1987</ele>
        <time>2010-01-01T00:44:20Z</time>
      </trkpt>
      <trkpt lat="44.99174" lon="5.53978">
        <ele>1984</ele>
        <time>2010-01-01T00:44:25Z</time>
      </trkpt>
      <trkpt lat="44.99168" lon="5.53986">
        <ele>1981</ele>
        <time>2010-01-01T00:44:29Z</time>
      </trkpt>
      <trkpt lat="44.99163" lon="5.53996">
        <ele>1975</ele>
        <time>2010-01-01T00:44:32Z</time>
      </trkpt>
      <trkpt lat="44.99166" lon="5.54005">
        <ele>1971</ele>
        <time>2010-01-01T00:44:35Z</time>
      </trkpt>
      <trkpt lat="44.99169" lon="5.54017">
        <ele>1973</ele>
        <time>2010-01-01T00:44:39Z</time>
      </trkpt>
      <trkpt lat="44.99173" lon="5.54028">
        <ele>1972</ele>
        <time>2010-01-01T00:44:42Z</time>
      </trkpt>
      <trkpt lat="44.99176" lon="5.5404">
        <ele>1971</ele>
        <time>2010-01-01T00:44:46Z</time>
      </trkpt>
      <trkpt lat="44.99182" lon="5.54048">
        <ele>1970</ele>
        <time>2010-01-01T00:44:49Z</time>
      </trkpt>
      <trkpt lat="44.99188" lon="5.54055">
        <ele>1969</ele>
        <time>2010-01-01T00:44:52Z</time>
      </trkpt>
      <trkpt lat="44.99189" lon="5.54057">
        <ele>1969</ele>
        <time>2010-01-01T00:44:53Z</time>
      </trkpt>
      <trkpt lat="44.99196" lon="5.54076">
        <ele>1968</ele>
        <time>2010-01-01T00:44:59Z</time>
      </trkpt>
      <trkpt lat="44.99197" lon="5.54088">
        <ele>1954</ele>
        <time>2010-01-01T00:45:02Z</time>
      </trkpt>
      <trkpt lat="44.99199" lon="5.54099">
        <ele>1952</ele>
        <time>2010-01-01T00:45:06Z</time>
      </trkpt>
      <trkpt lat="44.99196" lon="5.5411">
        <ele>1950</ele>
        <time>2010-01-01T00:45:09Z</time>
      </trkpt>
      <trkpt lat="44.99195" lon="5.54122">
        <ele>1948</ele>
        <time>2010-01-01T00:45:12Z</time>
      </trkpt>
      <trkpt lat="44.99192" lon="5.54134">
        <ele>1945</ele>
        <time>2010-01-01T00:45:16Z</time>
      </trkpt>
      <trkpt lat="44.99189" lon="5.54144">
        <ele>1943</ele>
        <time>2010-01-01T00:45:19Z</time>
      </trkpt>
      <trkpt lat="44.99189" lon="5.54146">
        <ele>1942</ele>
        <time>2010-01-01T00:45:20Z</time>
      </trkpt>
      <trkpt lat="44.99189" lon="5.54168">
        <ele>1922</ele>
        <time>2010-01-01T00:45:26Z</time>
      </trkpt>
      <trkpt lat="44.99191" lon="5.5418">
        <ele>1920</ele>
        <time>2010-01-01T00:45:29Z</time>
      </trkpt>
      <trkpt lat="44.99193" lon="5.54192">
        <ele>1918</ele>
        <time>2010-01-01T00:45:33Z</time>
      </trkpt>
      <trkpt lat="44.99194" lon="5.54203">
        <ele>1915</ele>
        <time>2010-01-01T00:45:36Z</time>
      </trkpt>
      <trkpt lat="44.99198" lon="5.54214">
        <ele>1913</ele>
        <time>2010-01-01T00:45:39Z</time>
      </trkpt>
      <trkpt lat="44.99203" lon="5.54224">
        <ele>1911</ele>
        <time>2010-01-01T00:45:43Z</time>
      </trkpt>
      <trkpt lat="44.99206" lon="5.54233">
        <ele>1910</ele>
        <time>2010-01-01T00:45:46Z</time>
      </trkpt>
      <trkpt lat="44.99211" lon="5.54243">
        <ele>1910</ele>
        <time>2010-01-01T00:45:49Z</time>
      </trkpt>
      <trkpt lat="44.99215" lon="5.54254">
        <ele>1886</ele>
        <time>2010-01-01T00:45:53Z</time>
      </trkpt>
      <trkpt lat="44.9922" lon="5.54262">
        <ele>1887</ele>
        <time>2010-01-01T00:45:56Z</time>
      </trkpt>
      <trkpt lat="44.99228" lon="5.54268">
        <ele>1890</ele>
        <time>2010-01-01T00:45:59Z</time>
      </trkpt>
      <trkpt lat="44.99228" lon="5.54269">
        <ele>1889</ele>
        <time>2010-01-01T00:46:00Z</time>
      </trkpt>
      <trkpt lat="44.99238" lon="5.54282">
        <ele>1888</ele>
        <time>2010-01-01T00:46:05Z</time>
      </trkpt>
      <trkpt lat="44.99246" lon="5.54289">
        <ele>1887</ele>
        <time>2010-01-01T00:46:09Z</time>
      </trkpt>
      <trkpt lat="44.99253" lon="5.54292">
        <ele>1904</ele>
        <time>2010-01-01T00:46:12Z</time>
      </trkpt>
      <trkpt lat="44.9926" lon="5.54298">
        <ele>1902</ele>
        <time>2010-01-01T00:46:15Z</time>
      </trkpt>
      <trkpt lat="44.99267" lon="5.54303">
        <ele>1901</ele>
        <time>2010-01-01T00:46:18Z</time>
      </trkpt>
      <trkpt lat="44.99274" lon="5.54304">
        <ele>1901</ele>
        <time>2010-01-01T00:46:21Z</time>
      </trkpt>
      <trkpt lat="44.99282" lon="5.54307">
        <ele>1901</ele>
        <time>2010-01-01T00:46:24Z</time>
      </trkpt>
      <trkpt lat="44.99291" lon="5.54309">
        <ele>1902</ele>
        <time>2010-01-01T00:46:28Z</time>
      </trkpt>
      <trkpt lat="44.99299" lon="5.54312">
        <ele>1902</ele>
        <time>2010-01-01T00:46:31Z</time>
      </trkpt>
      <trkpt lat="44.99306" lon="5.54315">
        <ele>1902</ele>
        <time>2010-01-01T00:46:34Z</time>
      </trkpt>
      <trkpt lat="44.99314" lon="5.54314">
        <ele>1902</ele>
        <time>2010-01-01T00:46:38Z</time>
      </trkpt>
      <trkpt lat="44.99322" lon="5.54318">
        <ele>1902</ele>
        <time>2010-01-01T00:46:41Z</time>
      </trkpt>
      <trkpt lat="44.99329" lon="5.54321">
        <ele>1902</ele>
        <time>2010-01-01T00:46:44Z</time>
      </trkpt>
      <trkpt lat="44.99336" lon="5.54324">
        <ele>1898</ele>
        <time>2010-01-01T00:46:47Z</time>
      </trkpt>
      <trkpt lat="44.99339" lon="5.54326">
        <ele>1898</ele>
        <time>2010-01-01T00:46:48Z</time>
      </trkpt>
      <trkpt lat="44.99351" lon="5.54331">
        <ele>1895</ele>
        <time>2010-01-01T00:46:53Z</time>
      </trkpt>
      <trkpt lat="44.99358" lon="5.54333">
        <ele>1893</ele>
        <time>2010-01-01T00:46:56Z</time>
      </trkpt>
      <trkpt lat="44.99366" lon="5.54335">
        <ele>1893</ele>
        <time>2010-01-01T00:46:59Z</time>
      </trkpt>
      <trkpt lat="44.99374" lon="5.54335">
        <ele>1892</ele>
        <time>2010-01-01T00:47:03Z</time>
      </trkpt>
      <trkpt lat="44.99383" lon="5.54334">
        <ele>1891</ele>
        <time>2010-01-01T00:47:06Z</time>
      </trkpt>
      <trkpt lat="44.99391" lon="5.54338">
        <ele>1890</ele>
        <time>2010-01-01T00:47:09Z</time>
      </trkpt>
      <trkpt lat="44.994" lon="5.54339">
        <ele>1889</ele>
        <time>2010-01-01T00:47:13Z</time>
      </trkpt>
      <trkpt lat="44.99408" lon="5.54338">
        <ele>1887</ele>
        <time>2010-01-01T00:47:16Z</time>
      </trkpt>
      <trkpt lat="44.99416" lon="5.54339">
        <ele>1886</ele>
        <time>2010-01-01T00:47:20Z</time>
      </trkpt>
      <trkpt lat="44.99425" lon="5.54341">
        <ele>1882</ele>
        <time>2010-01-01T00:47:23Z</time>
      </trkpt>
      <trkpt lat="44.99426" lon="5.54342">
        <ele>1882</ele>
        <time>2010-01-01T00:47:24Z</time>
      </trkpt>
      <trkpt lat="44.9944" lon="5.54354">
        <ele>1880</ele>
        <time>2010-01-01T00:47:30Z</time>
      </trkpt>
      <trkpt lat="44.99449" lon="5.54355">
        <ele>1878</ele>
        <time>2010-01-01T00:47:34Z</time>
      </trkpt>
      <trkpt lat="44.99451" lon="5.54355">
        <ele>1878</ele>
        <time>2010-01-01T00:47:34Z</time>
      </trkpt>
      <trkpt lat="44.99464" lon="5.54365">
        <ele>1876</ele>
        <time>2010-01-01T00:47:41Z</time>
      </trkpt>
      <trkpt lat="44.99471" lon="5.54372">
        <ele>1876</ele>
        <time>2010-01-01T00:47:44Z</time>
      </trkpt>
      <trkpt lat="44.99477" lon="5.54381">
        <ele>1876</ele>
        <time>2010-01-01T00:47:47Z</time>
      </trkpt>
      <trkpt lat="44.99485" lon="5.54388">
        <ele>1877</ele>
        <time>2010-01-01T00:47:51Z</time>
      </trkpt>
      <trkpt lat="44.99485" lon="5.54388">
        <ele>1877</ele>
        <time>2010-01-01T00:47:51Z</time>
      </trkpt>
      <trkpt lat="44.99499" lon="5.54402">
        <ele>1877</ele>
        <time>2010-01-01T00:47:58Z</time>
      </trkpt>
      <trkpt lat="44.99505" lon="5.5441">
        <ele>1868</ele>
        <time>2010-01-01T00:48:01Z</time>
      </trkpt>
      <trkpt lat="44.99511" lon="5.54419">
        <ele>1870</ele>
        <time>2010-01-01T00:48:05Z</time>
      </trkpt>
      <trkpt lat="44.99516" lon="5.54429">
        <ele>1866</ele>
        <time>2010-01-01T00:48:08Z</time>
      </trkpt>
      <trkpt lat="44.99521" lon="5.54439">
        <ele>1862</ele>
        <time>2010-01-01T00:48:12Z</time>
      </trkpt>
      <trkpt lat="44.99522" lon="5.54441">
        <ele>1862</ele>
        <time>2010-01-01T00:48:13Z</time>
      </trkpt>
      <trkpt lat="44.9953" lon="5.54457">
        <ele>1859</ele>
        <time>2010-01-01T00:48:18Z</time>
      </trkpt>
      <trkpt lat="44.99535" lon="5.54467">
        <ele>1858</ele>
        <time>2010-01-01T00:48:21Z</time>
      </trkpt>
      <trkpt lat="44.99538" lon="5.54476">
        <ele>1858</ele>
        <time>2010-01-01T00:48:24Z</time>
      </trkpt>
      <trkpt lat="44.99542" lon="5.54485">
        <ele>1856</ele>
        <time>2010-01-01T00:48:27Z</time>
      </trkpt>
      <trkpt lat="44.99547" lon="5.54496">
        <ele>1855</ele>
        <time>2010-01-01T00:48:31Z</time>
      </trkpt>
      <trkpt lat="44.9955" lon="5.54507">
        <ele>1847</ele>
        <time>2010-01-01T00:48:34Z</time>
      </trkpt>
      <trkpt lat="44.99552" lon="5.54519">
        <ele>1846</ele>
        <time>2010-01-01T00:48:38Z</time>
      </trkpt>
      <trkpt lat="44.99553" lon="5.54531">
        <ele>1844</ele>
        <time>2010-01-01T00:48:41Z</time>
      </trkpt>
      <trkpt lat="44.99554" lon="5.54543">
        <ele>1843</ele>
        <time>2010-01-01T00:48:45Z</time>
      </trkpt>
      <trkpt lat="44.99555" lon="5.54555">
        <ele>1841</ele>
        <time>2010-01-01T00:48:48Z</time>
      </trkpt>
      <trkpt lat="44.99555" lon="5.54556">
        <ele>1841</ele>
        <time>2010-01-01T00:48:48Z</time>
      </trkpt>
      <trkpt lat="44.99559" lon="5.54577">
        <ele>1839</ele>
        <time>2010-01-01T00:48:55Z</time>
      </trkpt>
      <trkpt lat="44.99562" lon="5.54587">
        <ele>1827</ele>
        <time>2010-01-01T00:48:58Z</time>
      </trkpt>
      <trkpt lat="44.99566" lon="5.54597">
        <ele>1827</ele>
        <time>2010-01-01T00:49:01Z</time>
      </trkpt>
      <trkpt lat="44.99568" lon="5.54608">
        <ele>1826</ele>
        <time>2010-01-01T00:49:04Z</time>
      </trkpt>
      <trkpt lat="44.99572" lon="5.54619">
        <ele>1825</ele>
        <time>2010-01-01T00:49:08Z</time>
      </trkpt>
      <trkpt lat="44.99575" lon="5.54631">
        <ele>1825</ele>
        <time>2010-01-01T00:49:11Z</time>
      </trkpt>
      <trkpt lat="44.99576" lon="5.54642">
        <ele>1825</ele>
        <time>2010-01-01T00:49:14Z</time>
      </trkpt>
      <trkpt lat="44.9958" lon="5.54653">
        <ele>1826</ele>
        <time>2010-01-01T00:49:18Z</time>
      </trkpt>
      <trkpt lat="44.99583" lon="5.54661">
        <ele>1828</ele>
        <time>2010-01-01T00:49:20Z</time>
      </trkpt>
      <trkpt lat="44.99587" lon="5.54671">
        <ele>1831</ele>
        <time>2010-01-01T00:49:24Z</time>
      </trkpt>
      <trkpt lat="44.9959" lon="5.5468">
        <ele>1831</ele>
        <time>2010-01-01T00:49:26Z</time>
      </trkpt>
      <trkpt lat="44.99594" lon="5.5469">
        <ele>1832</ele>
        <time>2010-01-01T00:49:30Z</time>
      </trkpt>
      <trkpt lat="44.99597" lon="5.54699">
        <ele>1832</ele>
        <time>2010-01-01T00:49:32Z</time>
      </trkpt>
      <trkpt lat="44.99598" lon="5.54702">
        <ele>1832</ele>
        <time>2010-01-01T00:49:33Z</time>
      </trkpt>
      <trkpt lat="44.99607" lon="5.54718">
        <ele>1833</ele>
        <time>2010-01-01T00:49:39Z</time>
      </trkpt>
      <trkpt lat="44.9961" lon="5.54727">
        <ele>1833</ele>
        <time>2010-01-01T00:49:42Z</time>
      </trkpt>
      <trkpt lat="44.99616" lon="5.54736">
        <ele>1834</ele>
        <time>2010-01-01T00:49:45Z</time>
      </trkpt>
      <trkpt lat="44.99622" lon="5.54736">
        <ele>1835</ele>
        <time>2010-01-01T00:49:48Z</time>
      </trkpt>
      <trkpt lat="44.99615" lon="5.54751">
        <ele>1838</ele>
        <time>2010-01-01T00:49:53Z</time>
      </trkpt>
      <trkpt lat="44.99617" lon="5.54762">
        <ele>1838</ele>
        <time>2010-01-01T00:49:57Z</time>
      </trkpt>
      <trkpt lat="44.99621" lon="5.54772">
        <ele>1839</ele>
        <time>2010-01-01T00:50:00Z</time>
      </trkpt>
      <trkpt lat="44.99626" lon="5.54782">
        <ele>1841</ele>
        <time>2010-01-01T00:50:03Z</time>
      </trkpt>
      <trkpt lat="44.99634" lon="5.54788">
        <ele>1842</ele>
        <time>2010-01-01T00:50:07Z</time>
      </trkpt>
      <trkpt lat="44.99634" lon="5.54789">
        <ele>1842</ele>
        <time>2010-01-01T00:50:07Z</time>
      </trkpt>
      <trkpt lat="44.99646" lon="5.54804">
        <ele>1847</ele>
        <time>2010-01-01T00:50:13Z</time>
      </trkpt>
      <trkpt lat="44.99654" lon="5.54809">
        <ele>1850</ele>
        <time>2010-01-01T00:50:17Z</time>
      </trkpt>
      <trkpt lat="44.99658" lon="5.54821">
        <ele>1855</ele>
        <time>2010-01-01T00:50:21Z</time>
      </trkpt>
      <trkpt lat="44.99664" lon="5.5483">
        <ele>1863</ele>
        <time>2010-01-01T00:50:24Z</time>
      </trkpt>
      <trkpt lat="44.99664" lon="5.5483">
        <ele>1864</ele>
        <time>2010-01-01T00:50:24Z</time>
      </trkpt>
      <trkpt lat="44.99678" lon="5.54843">
        <ele>1876</ele>
        <time>2010-01-01T00:50:31Z</time>
      </trkpt>
      <trkpt lat="44.99681" lon="5.54854">
        <ele>1879</ele>
        <time>2010-01-01T00:50:34Z</time>
      </trkpt>
      <trkpt lat="44.99689" lon="5.54859">
        <ele>1881</ele>
        <time>2010-01-01T00:50:38Z</time>
      </trkpt>
      <trkpt lat="44.99689" lon="5.54859">
        <ele>1881</ele>
        <time>2010-01-01T00:50:38Z</time>
      </trkpt>
      <trkpt lat="44.99698" lon="5.54876">
        <ele>1884</ele>
        <time>2010-01-01T00:50:44Z</time>
      </trkpt>
      <trkpt lat="44.99693" lon="5.54885">
        <ele>1883</ele>
        <time>2010-01-01T00:50:47Z</time>
      </trkpt>
      <trkpt lat="44.99689" lon="5.54897">
        <ele>1881</ele>
        <time>2010-01-01T00:50:51Z</time>
      </trkpt>
      <trkpt lat="44.99685" lon="5.54908">
        <ele>1878</ele>
        <time>2010-01-01T00:50:54Z</time>
      </trkpt>
      <trkpt lat="44.99685" lon="5.54909">
        <ele>1878</ele>
        <time>2010-01-01T00:50:54Z</time>
      </trkpt>
      <trkpt lat="44.99692" lon="5.54931">
        <ele>1871</ele>
        <time>2010-01-01T00:51:01Z</time>
      </trkpt>
      <trkpt lat="44.997" lon="5.54934">
        <ele>1873</ele>
        <time>2010-01-01T00:51:04Z</time>
      </trkpt>
      <trkpt lat="44.99702" lon="5.54933">
        <ele>1874</ele>
        <time>2010-01-01T00:51:05Z</time>
      </trkpt>
      <trkpt lat="44.99717" lon="5.54933">
        <ele>1881</ele>
        <time>2010-01-01T00:51:11Z</time>
      </trkpt>
      <trkpt lat="44.99725" lon="5.54934">
        <ele>1885</ele>
        <time>2010-01-01T00:51:14Z</time>
      </trkpt>
      <trkpt lat="44.99733" lon="5.54934">
        <ele>1890</ele>
        <time>2010-01-01T00:51:18Z</time>
      </trkpt>
      <trkpt lat="44.99742" lon="5.54931">
        <ele>1896</ele>
        <time>2010-01-01T00:51:21Z</time>
      </trkpt>
      <trkpt lat="44.99747" lon="5.5494">
        <ele>1892</ele>
        <time>2010-01-01T00:51:25Z</time>
      </trkpt>
      <trkpt lat="44.99755" lon="5.54946">
        <ele>1923</ele>
        <time>2010-01-01T00:51:28Z</time>
      </trkpt>
      <trkpt lat="44.99755" lon="5.54947">
        <ele>1923</ele>
        <time>2010-01-01T00:51:28Z</time>
      </trkpt>
      <trkpt lat="44.99772" lon="5.5495">
        <ele>1926</ele>
        <time>2010-01-01T00:51:35Z</time>
      </trkpt>
      <trkpt lat="44.9978" lon="5.54946">
        <ele>1928</ele>
        <time>2010-01-01T00:51:39Z</time>
      </trkpt>
      <trkpt lat="44.99781" lon="5.54946">
        <ele>1928</ele>
        <time>2010-01-01T00:51:39Z</time>
      </trkpt>
      <trkpt lat="44.99797" lon="5.54942">
        <ele>1932</ele>
        <time>2010-01-01T00:51:45Z</time>
      </trkpt>
      <trkpt lat="44.99806" lon="5.54939">
        <ele>1935</ele>
        <time>2010-01-01T00:51:49Z</time>
      </trkpt>
      <trkpt lat="44.99813" lon="5.54932">
        <ele>1938</ele>
        <time>2010-01-01T00:51:52Z</time>
      </trkpt>
      <trkpt lat="44.99817" lon="5.54942">
        <ele>1938</ele>
        <time>2010-01-01T00:51:56Z</time>
      </trkpt>
      <trkpt lat="44.99818" lon="5.54943">
        <ele>1938</ele>
        <time>2010-01-01T00:51:56Z</time>
      </trkpt>
      <trkpt lat="44.99835" lon="5.54944">
        <ele>1958</ele>
        <time>2010-01-01T00:52:03Z</time>
      </trkpt>
      <trkpt lat="44.99843" lon="5.54945">
        <ele>1959</ele>
        <time>2010-01-01T00:52:06Z</time>
      </trkpt>
      <trkpt lat="44.99851" lon="5.54945">
        <ele>1960</ele>
        <time>2010-01-01T00:52:09Z</time>
      </trkpt>
      <trkpt lat="44.9986" lon="5.54949">
        <ele>1961</ele>
        <time>2010-01-01T00:52:13Z</time>
      </trkpt>
      <trkpt lat="44.99868" lon="5.54954">
        <ele>1962</ele>
        <time>2010-01-01T00:52:17Z</time>
      </trkpt>
      <trkpt lat="44.99868" lon="5.54954">
        <ele>1962</ele>
        <time>2010-01-01T00:52:17Z</time>
      </trkpt>
      <trkpt lat="44.9988" lon="5.54971">
        <ele>1964</ele>
        <time>2010-01-01T00:52:23Z</time>
      </trkpt>
      <trkpt lat="44.99888" lon="5.54974">
        <ele>1966</ele>
        <time>2010-01-01T00:52:27Z</time>
      </trkpt>
      <trkpt lat="44.99896" lon="5.54968">
        <ele>1966</ele>
        <time>2010-01-01T00:52:31Z</time>
      </trkpt>
      <trkpt lat="44.99903" lon="5.54976">
        <ele>1968</ele>
        <time>2010-01-01T00:52:34Z</time>
      </trkpt>
      <trkpt lat="44.99904" lon="5.54976">
        <ele>1969</ele>
        <time>2010-01-01T00:52:35Z</time>
      </trkpt>
      <trkpt lat="44.99919" lon="5.54972">
        <ele>1981</ele>
        <time>2010-01-01T00:52:41Z</time>
      </trkpt>
      <trkpt lat="44.99926" lon="5.54979">
        <ele>1981</ele>
        <time>2010-01-01T00:52:44Z</time>
      </trkpt>
      <trkpt lat="44.99933" lon="5.54985">
        <ele>1981</ele>
        <time>2010-01-01T00:52:47Z</time>
      </trkpt>
      <trkpt lat="44.99941" lon="5.54986">
        <ele>1982</ele>
        <time>2010-01-01T00:52:51Z</time>
      </trkpt>
      <trkpt lat="44.99949" lon="5.54986">
        <ele>1983</ele>
        <time>2010-01-01T00:52:54Z</time>
      </trkpt>
      <trkpt lat="44.99955" lon="5.54979">
        <ele>1983</ele>
        <time>2010-01-01T00:52:57Z</time>
      </trkpt>
      <trkpt lat="44.99957" lon="5.54978">
        <ele>1984</ele>
        <time>2010-01-01T00:52:58Z</time>
      </trkpt>
      <trkpt lat="44.99965" lon="5.5496">
        <ele>1983</ele>
        <time>2010-01-01T00:53:04Z</time>
      </trkpt>
      <trkpt lat="44.99972" lon="5.54951">
        <ele>1983</ele>
        <time>2010-01-01T00:53:07Z</time>
      </trkpt>
      <trkpt lat="44.9998" lon="5.54951">
        <ele>1983</ele>
        <time>2010-01-01T00:53:11Z</time>
      </trkpt>
      <trkpt lat="44.99989" lon="5.54954">
        <ele>1984</ele>
        <time>2010-01-01T00:53:14Z</time>
      </trkpt>
      <trkpt lat="44.99992" lon="5.54966">
        <ele>1986</ele>
        <time>2010-01-01T00:53:18Z</time>
      </trkpt>
      <trkpt lat="44.99993" lon="5.54967">
        <ele>1986</ele>
        <time>2010-01-01T00:53:18Z</time>
      </trkpt>
      <trkpt lat="44.99999" lon="5.54988">
        <ele>1991</ele>
        <time>2010-01-01T00:53:25Z</time>
      </trkpt>
      <trkpt lat="44.99998" lon="5.55001">
        <ele>1996</ele>
        <time>2010-01-01T00:53:28Z</time>
      </trkpt>
      <trkpt lat="45" lon="5.55013">
        <ele>1993</ele>
        <time>2010-01-01T00:53:32Z</time>
      </trkpt>
      <trkpt lat="45.00002" lon="5.55023">
        <ele>2001</ele>
        <time>2010-01-01T00:53:35Z</time>
      </trkpt>
      <trkpt lat="45.00005" lon="5.55033">
        <ele>2001</ele>
        <time>2010-01-01T00:53:38Z</time>
      </trkpt>
      <trkpt lat="45.00009" lon="5.55043">
        <ele>2002</ele>
        <time>2010-01-01T00:53:41Z</time>
      </trkpt>
      <trkpt lat="45.00014" lon="5.55052">
        <ele>2002</ele>
        <time>2010-01-01T00:53:44Z</time>
      </trkpt>
      <trkpt lat="45.00016" lon="5.55064">
        <ele>2003</ele>
        <time>2010-01-01T00:53:48Z</time>
      </trkpt>
      <trkpt lat="45.00016" lon="5.55065">
        <ele>2003</ele>
        <time>2010-01-01T00:53:48Z</time>
      </trkpt>
      <trkpt lat="45.00024" lon="5.55085">
        <ele>2008</ele>
        <time>2010-01-01T00:53:54Z</time>
      </trkpt>
      <trkpt lat="45.00028" lon="5.55095">
        <ele>2010</ele>
        <time>2010-01-01T00:53:58Z</time>
      </trkpt>
      <trkpt lat="45.00035" lon="5.55102">
        <ele>2012</ele>
        <time>2010-01-01T00:54:01Z</time>
      </trkpt>
      <trkpt lat="45.00042" lon="5.5511">
        <ele>2013</ele>
        <time>2010-01-01T00:54:05Z</time>
      </trkpt>
      <trkpt lat="45.00042" lon="5.55122">
        <ele>2014</ele>
        <time>2010-01-01T00:54:08Z</time>
      </trkpt>
      <trkpt lat="45.00041" lon="5.55135">
        <ele>2014</ele>
        <time>2010-01-01T00:54:12Z</time>
      </trkpt>
      <trkpt lat="45.00042" lon="5.55135">
        <ele>2014</ele>
        <time>2010-01-01T00:54:12Z</time>
      </trkpt>
      <trkpt lat="45.00047" lon="5.55159">
        <ele>2016</ele>
        <time>2010-01-01T00:54:19Z</time>
      </trkpt>
      <trkpt lat="45.0005" lon="5.5517">
        <ele>2022</ele>
        <time>2010-01-01T00:54:22Z</time>
      </trkpt>
      <trkpt lat="45.00052" lon="5.55181">
        <ele>2023</ele>
        <time>2010-01-01T00:54:25Z</time>
      </trkpt>
      <trkpt lat="45.00056" lon="5.5519">
        <ele>2024</ele>
        <time>2010-01-01T00:54:29Z</time>
      </trkpt>
      <trkpt lat="45.00057" lon="5.55202">
        <ele>2024</ele>
        <time>2010-01-01T00:54:32Z</time>
      </trkpt>
      <trkpt lat="45.0006" lon="5.55213">
        <ele>2025</ele>
        <time>2010-01-01T00:54:35Z</time>
      </trkpt>
      <trkpt lat="45.00061" lon="5.55214">
        <ele>2026</ele>
        <time>2010-01-01T00:54:36Z</time>
      </trkpt>
      <trkpt lat="45.00069" lon="5.55232">
        <ele>2030</ele>
        <time>2010-01-01T00:54:42Z</time>
      </trkpt>
      <trkpt lat="45.00071" lon="5.55244">
        <ele>2034</ele>
        <time>2010-01-01T00:54:45Z</time>
      </trkpt>
      <trkpt lat="45.00071" lon="5.55256">
        <ele>2030</ele>
        <time>2010-01-01T00:54:49Z</time>
      </trkpt>
      <trkpt lat="45.0007" lon="5.55267">
        <ele>2025</ele>
        <time>2010-01-01T00:54:52Z</time>
      </trkpt>
      <trkpt lat="45.0007" lon="5.5528">
        <ele>2021</ele>
        <time>2010-01-01T00:54:55Z</time>
      </trkpt>
      <trkpt lat="45.00077" lon="5.55286">
        <ele>2022</ele>
        <time>2010-01-01T00:54:59Z</time>
      </trkpt>
      <trkpt lat="45.00077" lon="5.55287">
        <ele>2022</ele>
        <time>2010-01-01T00:54:59Z</time>
      </trkpt>
      <trkpt lat="45.00087" lon="5.55305">
        <ele>2043</ele>
        <time>2010-01-01T00:55:06Z</time>
      </trkpt>
      <trkpt lat="45.00084" lon="5.55316">
        <ele>2042</ele>
        <time>2010-01-01T00:55:09Z</time>
      </trkpt>
      <trkpt lat="45.00085" lon="5.55329">
        <ele>2040</ele>
        <time>2010-01-01T00:55:12Z</time>
      </trkpt>
      <trkpt lat="45.00086" lon="5.5534">
        <ele>2036</ele>
        <time>2010-01-01T00:55:16Z</time>
      </trkpt>
      <trkpt lat="45.00091" lon="5.55349">
        <ele>2033</ele>
        <time>2010-01-01T00:55:19Z</time>
      </trkpt>
      <trkpt lat="45.00096" lon="5.55357">
        <ele>2031</ele>
        <time>2010-01-01T00:55:22Z</time>
      </trkpt>
      <trkpt lat="45.00097" lon="5.55358">
        <ele>2030</ele>
        <time>2010-01-01T00:55:23Z</time>
      </trkpt>
      <trkpt lat="45.0011" lon="5.55368">
        <ele>2029</ele>
        <time>2010-01-01T00:55:29Z</time>
      </trkpt>
      <trkpt lat="45.00117" lon="5.55362">
        <ele>2031</ele>
        <time>2010-01-01T00:55:32Z</time>
      </trkpt>
      <trkpt lat="45.00125" lon="5.55361">
        <ele>2033</ele>
        <time>2010-01-01T00:55:35Z</time>
      </trkpt>
      <trkpt lat="45.00133" lon="5.55359">
        <ele>2034</ele>
        <time>2010-01-01T00:55:38Z</time>
      </trkpt>
      <trkpt lat="45.0014" lon="5.55365">
        <ele>2035</ele>
        <time>2010-01-01T00:55:41Z</time>
      </trkpt>
      <trkpt lat="45.00145" lon="5.55371">
        <ele>2035</ele>
        <time>2010-01-01T00:55:44Z</time>
      </trkpt>
      <trkpt lat="45.00147" lon="5.55373">
        <ele>2035</ele>
        <time>2010-01-01T00:55:45Z</time>
      </trkpt>
      <trkpt lat="45.00158" lon="5.55383">
        <ele>2036</ele>
        <time>2010-01-01T00:55:50Z</time>
      </trkpt>
      <trkpt lat="45.00167" lon="5.55388">
        <ele>2038</ele>
        <time>2010-01-01T00:55:54Z</time>
      </trkpt>
      <trkpt lat="45.00175" lon="5.55389">
        <ele>2047</ele>
        <time>2010-01-01T00:55:57Z</time>
      </trkpt>
      <trkpt lat="45.00183" lon="5.55388">
        <ele>2047</ele>
        <time>2010-01-01T00:56:01Z</time>
      </trkpt>
      <trkpt lat="45.0019" lon="5.55385">
        <ele>2046</ele>
        <time>2010-01-01T00:56:04Z</time>
      </trkpt>
      <trkpt lat="45.00198" lon="5.55379">
        <ele>2046</ele>
        <time>2010-01-01T00:56:07Z</time>
      </trkpt>
      <trkpt lat="45.00205" lon="5.55376">
        <ele>2046</ele>
        <time>2010-01-01T00:56:10Z</time>
      </trkpt>
      <trkpt lat="45.00218" lon="5.55364">
        <ele>2044</ele>
        <time>2010-01-01T00:56:16Z</time>
      </trkpt>
      <trkpt lat="45.00205" lon="5.55309">
        <ele>2039</ele>
        <time>2010-01-01T00:56:33Z</time>
      </trkpt>
      <trkpt lat="45.00213" lon="5.55285">
        <ele>2037</ele>
        <time>2010-01-01T00:56:40Z</time>
      </trkpt>
      <trkpt lat="45.00238" lon="5.55277">
        <ele>2033</ele>
        <time>2010-01-01T00:56:51Z</time>
      </trkpt>
      <trkpt lat="45.00244" lon="5.55239">
        <ele>2024</ele>
        <time>2010-01-01T00:57:02Z</time>
      </trkpt>
      <trkpt lat="45.00285" lon="5.55237">
        <ele>2006</ele>
        <time>2010-01-01T00:57:18Z</time>
      </trkpt>
      <trkpt lat="45.00304" lon="5.55268">
        <ele>2013</ele>
        <time>2010-01-01T00:57:30Z</time>
      </trkpt>
      <trkpt lat="45.00333" lon="5.55275">
        <ele>2010</ele>
        <time>2010-01-01T00:57:41Z</time>
      </trkpt>
      <trkpt lat="45.00341" lon="5.55273">
        <ele>1999</ele>
        <time>2010-01-01T00:57:45Z</time>
      </trkpt>
      <trkpt lat="45.0035" lon="5.55272">
        <ele>1999</ele>
        <time>2010-01-01T00:57:48Z</time>
      </trkpt>
      <trkpt lat="45.00359" lon="5.55271">
        <ele>1998</ele>
        <time>2010-01-01T00:57:52Z</time>
      </trkpt>
      <trkpt lat="45.00367" lon="5.55269">
        <ele>1997</ele>
        <time>2010-01-01T00:57:55Z</time>
      </trkpt>
      <trkpt lat="45.00376" lon="5.55267">
        <ele>1996</ele>
        <time>2010-01-01T00:57:59Z</time>
      </trkpt>
      <trkpt lat="45.00385" lon="5.55267">
        <ele>1995</ele>
        <time>2010-01-01T00:58:02Z</time>
      </trkpt>
      <trkpt lat="45.00393" lon="5.55268">
        <ele>1993</ele>
        <time>2010-01-01T00:58:06Z</time>
      </trkpt>
      <trkpt lat="45.00421" lon="5.55274">
        <ele>1975</ele>
        <time>2010-01-01T00:58:17Z</time>
      </trkpt>
      <trkpt lat="45.00456" lon="5.55308">
        <ele>1970</ele>
        <time>2010-01-01T00:58:34Z</time>
      </trkpt>
      <trkpt lat="45.00486" lon="5.5531">
        <ele>1962</ele>
        <time>2010-01-01T00:58:46Z</time>
      </trkpt>
      <trkpt lat="45.00498" lon="5.55417">
        <ele>1943</ele>
        <time>2010-01-01T00:59:17Z</time>
      </trkpt>
      <trkpt lat="45.00501" lon="5.55576">
        <ele>1926</ele>
        <time>2010-01-01T01:00:02Z</time>
      </trkpt>
      <trkpt lat="45.00531" lon="5.55611">
        <ele>1919</ele>
        <time>2010-01-01T01:00:17Z</time>
      </trkpt>
      <trkpt lat="45.00609" lon="5.5559">
        <ele>1894</ele>
        <time>2010-01-01T01:00:49Z</time>
      </trkpt>
      <trkpt lat="45.0064" lon="5.55602">
        <ele>1890</ele>
        <time>2010-01-01T01:01:02Z</time>
      </trkpt>
      <trkpt lat="45.0066" lon="5.5564">
        <ele>1893</ele>
        <time>2010-01-01T01:01:15Z</time>
      </trkpt>
      <trkpt lat="45.00679" lon="5.55607">
        <ele>1877</ele>
        <time>2010-01-01T01:01:27Z</time>
      </trkpt>
      <trkpt lat="45.00799" lon="5.55608">
        <ele>1861</ele>
        <time>2010-01-01T01:02:15Z</time>
      </trkpt>
      <trkpt lat="45.00825" lon="5.55564">
        <ele>1846</ele>
        <time>2010-01-01T01:02:32Z</time>
      </trkpt>
      <trkpt lat="45.0086" lon="5.55508">
        <ele>1835</ele>
        <time>2010-01-01T01:02:53Z</time>
      </trkpt>
      <trkpt lat="45.0099" lon="5.55432">
        <ele>1814</ele>
        <time>2010-01-01T01:03:49Z</time>
      </trkpt>
      <trkpt lat="45.01057" lon="5.55459">
        <ele>1808</ele>
        <time>2010-01-01T01:04:17Z</time>
      </trkpt>
      <trkpt lat="45.01093" lon="5.55458">
        <ele>1794</ele>
        <time>2010-01-01T01:04:31Z</time>
      </trkpt>
      <trkpt lat="45.01138" lon="5.55427">
        <ele>1786</ele>
        <time>2010-01-01T01:04:52Z</time>
      </trkpt>
      <trkpt lat="45.01198" lon="5.55539">
        <ele>1764</ele>
        <time>2010-01-01T01:05:31Z</time>
      </trkpt>
      <trkpt lat="45.0125" lon="5.55557">
        <ele>1760</ele>
        <time>2010-01-01T01:05:53Z</time>
      </trkpt>
      <trkpt lat="45.01376" lon="5.55567">
        <ele>1725</ele>
        <time>2010-01-01T01:06:43Z</time>
      </trkpt>
      <trkpt lat="45.01391" lon="5.55634">
        <ele>1730</ele>
        <time>2010-01-01T01:07:03Z</time>
      </trkpt>
      <trkpt lat="45.01469" lon="5.55679">
        <ele>1740</ele>
        <time>2010-01-01T01:07:37Z</time>
      </trkpt>
      <trkpt lat="45.01585" lon="5.55605">
        <ele>1730</ele>
        <time>2010-01-01T01:08:27Z</time>
      </trkpt>
      <trkpt lat="45.01652" lon="5.55532">
        <ele>1719</ele>
        <time>2010-01-01T01:09:02Z</time>
      </trkpt>
      <trkpt lat="45.01703" lon="5.55418">
        <ele>1700</ele>
        <time>2010-01-01T01:09:40Z</time>
      </trkpt>
      <trkpt lat="45.01791" lon="5.55404">
        <ele>1673</ele>
        <time>2010-01-01T01:10:15Z</time>
      </trkpt>
      <trkpt lat="45.01812" lon="5.55331">
        <ele>1661</ele>
        <time>2010-01-01T01:10:37Z</time>
      </trkpt>
      <trkpt lat="45.01867" lon="5.55268">
        <ele>1639</ele>
        <time>2010-01-01T01:11:05Z</time>
      </trkpt>
      <trkpt lat="45.01888" lon="5.55215">
        <ele>1630</ele>
        <time>2010-01-01T01:11:23Z</time>
      </trkpt>
      <trkpt lat="45.01867" lon="5.55093">
        <ele>1617</ele>
        <time>2010-01-01T01:11:58Z</time>
      </trkpt>
      <trkpt lat="45.01884" lon="5.55011">
        <ele>1598</ele>
        <time>2010-01-01T01:12:22Z</time>
      </trkpt>
      <trkpt lat="45.01909" lon="5.55021">
        <ele>1595</ele>
        <time>2010-01-01T01:12:33Z</time>
      </trkpt>
      <trkpt lat="45.0196" lon="5.54925">
        <ele>1560</ele>
        <time>2010-01-01T01:13:07Z</time>
      </trkpt>
      <trkpt lat="45.02046" lon="5.54866">
        <ele>1525</ele>
        <time>2010-01-01T01:13:45Z</time>
      </trkpt>
      <trkpt lat="45.02097" lon="5.54718">
        <ele>1491</ele>
        <time>2010-01-01T01:14:32Z</time>
      </trkpt>
      <trkpt lat="45.02159" lon="5.54663">
        <ele>1476</ele>
        <time>2010-01-01T01:15:01Z</time>
      </trkpt>
      <trkpt lat="45.02205" lon="5.54545">
        <ele>1458</ele>
        <time>2010-01-01T01:15:39Z</time>
      </trkpt>
      <trkpt lat="45.02286" lon="5.54547">
        <ele>1447</ele>
        <time>2010-01-01T01:16:12Z</time>
      </trkpt>
      <trkpt lat="45.02325" lon="5.54588">
        <ele>1446</ele>
        <time>2010-01-01T01:16:31Z</time>
      </trkpt>
      <trkpt lat="45.02372" lon="5.54643">
        <ele>1442</ele>
        <time>2010-01-01T01:16:55Z</time>
      </trkpt>
      <trkpt lat="45.02465" lon="5.54678">
        <ele>1434</ele>
        <time>2010-01-01T01:17:34Z</time>
      </trkpt>
      <trkpt lat="45.02553" lon="5.54764">
        <ele>1424</ele>
        <time>2010-01-01T01:18:17Z</time>
      </trkpt>
      <trkpt lat="45.02742" lon="5.54733">
        <ele>1363</ele>
        <time>2010-01-01T01:19:33Z</time>
      </trkpt>
      <trkpt lat="45.02899" lon="5.54684">
        <ele>1307</ele>
        <time>2010-01-01T01:20:37Z</time>
      </trkpt>
      <trkpt lat="45.03031" lon="5.5468">
        <ele>1265</ele>
        <time>2010-01-01T01:21:30Z</time>
      </trkpt>
      <trkpt lat="45.03111" lon="5.54831">
        <ele>1244</ele>
        <time>2010-01-01T01:22:23Z</time>
      </trkpt>
      <trkpt lat="45.03202" lon="5.55064">
        <ele>1253</ele>
        <time>2010-01-01T01:23:39Z</time>
      </trkpt>
      <trkpt lat="45.03227" lon="5.55164">
        <ele>1265</ele>
        <time>2010-01-01T01:24:09Z</time>
      </trkpt>
      <trkpt lat="45.03314" lon="5.55216">
        <ele>1268</ele>
        <time>2010-01-01T01:24:47Z</time>
      </trkpt>
      <trkpt lat="45.03346" lon="5.55329">
        <ele>1267</ele>
        <time>2010-01-01T01:25:21Z</time>
      </trkpt>
      <trkpt lat="45.03435" lon="5.55462">
        <ele>1265</ele>
        <time>2010-01-01T01:26:13Z</time>
      </trkpt>
      <trkpt lat="45.03513" lon="5.55521">
        <ele>1267</ele>
        <time>2010-01-01T01:26:48Z</time>
      </trkpt>
      <trkpt lat="45.03523" lon="5.55593">
        <ele>1271</ele>
        <time>2010-01-01T01:27:09Z</time>
      </trkpt>
      <trkpt lat="45.03547" lon="5.55591">
        <ele>1272</ele>
        <time>2010-01-01T01:27:18Z</time>
      </trkpt>
      <trkpt lat="45.03585" lon="5.5564">
        <ele>1276</ele>
        <time>2010-01-01T01:27:39Z</time>
      </trkpt>
      <trkpt lat="45.03624" lon="5.55595">
        <ele>1276</ele>
        <time>2010-01-01T01:27:59Z</time>
      </trkpt>
      <trkpt lat="45.03668" lon="5.55661">
        <ele>1279</ele>
        <time>2010-01-01T01:28:25Z</time>
      </trkpt>
      <trkpt lat="45.0376" lon="5.55649">
        <ele>1271</ele>
        <time>2010-01-01T01:29:02Z</time>
      </trkpt>
      <trkpt lat="45.03725" lon="5.55746">
        <ele>1281</ele>
        <time>2010-01-01T01:29:32Z</time>
      </trkpt>
      <trkpt lat="45.03801" lon="5.55725">
        <ele>1273</ele>
        <time>2010-01-01T01:30:03Z</time>
      </trkpt>
      <trkpt lat="45.03918" lon="5.55782">
        <ele>1267</ele>
        <time>2010-01-01T01:30:53Z</time>
      </trkpt>
      <trkpt lat="45.04019" lon="5.55796">
        <ele>1253</ele>
        <time>2010-01-01T01:31:34Z</time>
      </trkpt>
      <trkpt lat="45.04129" lon="5.5584">
        <ele>1241</ele>
        <time>2010-01-01T01:32:19Z</time>
      </trkpt>
      <trkpt lat="45.04302" lon="5.5578">
        <ele>1180</ele>
        <time>2010-01-01T01:33:30Z</time>
      </trkpt>
      <trkpt lat="45.04378" lon="5.55996">
        <ele>1171</ele>
        <time>2010-01-01T01:34:39Z</time>
      </trkpt>
      <trkpt lat="45.04509" lon="5.56054">
        <ele>1170</ele>
        <time>2010-01-01T01:35:34Z</time>
      </trkpt>
    </trkseg>
  </trk>
</gpx>